<?xml version="1.0" encoding="UTF-8" standalone="no" ?>
<gpx xmlns="http://www.topografix.com/GPX/1/1" xmlns:xsi="http://www.w3.org/2001/XMLSchema-instance" xsi:schemaLocation="http://www.topografix.com/GPX/1/1 http://www.topografix.com/GPX/1/1/gpx.xsd" version="1.1" creator="VisuGPX - https://www.visugpx.com">
  <metadata>
    <name>ASLPM marche Les Combrands 19/01/2015</name>
    <desc><![CDATA[Marche du 19 Janvier 2015 Les Combrands.]]></desc>
  </metadata>
  <trk>
    <name><![CDATA[Marche aux Combrands]]></name>
    <trkseg>
      <trkpt lat="46.3174" lon="-0.85033">
        <ele>4.5999999046326</ele>
        <time>2015-01-19T08:09:53.000Z</time>
      </trkpt>
      <trkpt lat="46.31742" lon="-0.85032">
        <ele>4.5999999046326</ele>
        <time>2015-01-19T08:09:55.000Z</time>
      </trkpt>
      <trkpt lat="46.31746" lon="-0.85025">
        <ele>4.4000000953674</ele>
        <time>2015-01-19T08:10:00.000Z</time>
      </trkpt>
      <trkpt lat="46.31749" lon="-0.85004">
        <ele>4.1999998092651</ele>
        <time>2015-01-19T08:10:09.000Z</time>
      </trkpt>
      <trkpt lat="46.3175" lon="-0.85001">
        <ele>4.1999998092651</ele>
        <time>2015-01-19T08:10:10.000Z</time>
      </trkpt>
      <trkpt lat="46.31756" lon="-0.84998">
        <ele>4</ele>
        <time>2015-01-19T08:10:15.000Z</time>
      </trkpt>
      <trkpt lat="46.31772" lon="-0.85007">
        <ele>4</ele>
        <time>2015-01-19T08:10:26.000Z</time>
      </trkpt>
      <trkpt lat="46.31784" lon="-0.85013">
        <ele>4.1999998092651</ele>
        <time>2015-01-19T08:10:34.000Z</time>
      </trkpt>
      <trkpt lat="46.31795" lon="-0.85023">
        <ele>4.5999999046326</ele>
        <time>2015-01-19T08:10:43.000Z</time>
      </trkpt>
      <trkpt lat="46.31805" lon="-0.8503">
        <ele>5</ele>
        <time>2015-01-19T08:10:50.000Z</time>
      </trkpt>
      <trkpt lat="46.31815" lon="-0.85037">
        <ele>5.4000000953674</ele>
        <time>2015-01-19T08:10:57.000Z</time>
      </trkpt>
      <trkpt lat="46.31826" lon="-0.85044">
        <ele>5.5999999046326</ele>
        <time>2015-01-19T08:11:06.000Z</time>
      </trkpt>
      <trkpt lat="46.31835" lon="-0.85049">
        <ele>5.4000000953674</ele>
        <time>2015-01-19T08:11:12.000Z</time>
      </trkpt>
      <trkpt lat="46.31847" lon="-0.85056">
        <ele>5.1999998092651</ele>
        <time>2015-01-19T08:11:20.000Z</time>
      </trkpt>
      <trkpt lat="46.31867" lon="-0.85068">
        <ele>4.8000001907349</ele>
        <time>2015-01-19T08:11:34.000Z</time>
      </trkpt>
      <trkpt lat="46.31878" lon="-0.85076">
        <ele>4.5999999046326</ele>
        <time>2015-01-19T08:11:42.000Z</time>
      </trkpt>
      <trkpt lat="46.31895" lon="-0.85087">
        <ele>4.4000000953674</ele>
        <time>2015-01-19T08:11:53.000Z</time>
      </trkpt>
      <trkpt lat="46.31906" lon="-0.85094">
        <ele>4.5999999046326</ele>
        <time>2015-01-19T08:12:01.000Z</time>
      </trkpt>
      <trkpt lat="46.31919" lon="-0.85101">
        <ele>4.8000001907349</ele>
        <time>2015-01-19T08:12:10.000Z</time>
      </trkpt>
      <trkpt lat="46.31935" lon="-0.85112">
        <ele>4.8000001907349</ele>
        <time>2015-01-19T08:12:21.000Z</time>
      </trkpt>
      <trkpt lat="46.31951" lon="-0.85122">
        <ele>4.1999998092651</ele>
        <time>2015-01-19T08:12:32.000Z</time>
      </trkpt>
      <trkpt lat="46.31967" lon="-0.85132">
        <ele>3.5999999046326</ele>
        <time>2015-01-19T08:12:42.000Z</time>
      </trkpt>
      <trkpt lat="46.31985" lon="-0.85142">
        <ele>3.2000000476837</ele>
        <time>2015-01-19T08:12:54.000Z</time>
      </trkpt>
      <trkpt lat="46.32002" lon="-0.85153">
        <ele>3.7999999523163</ele>
        <time>2015-01-19T08:13:06.000Z</time>
      </trkpt>
      <trkpt lat="46.32014" lon="-0.85162">
        <ele>4.1999998092651</ele>
        <time>2015-01-19T08:13:16.000Z</time>
      </trkpt>
      <trkpt lat="46.32024" lon="-0.85173">
        <ele>4.5999999046326</ele>
        <time>2015-01-19T08:13:26.000Z</time>
      </trkpt>
      <trkpt lat="46.32035" lon="-0.85188">
        <ele>4.8000001907349</ele>
        <time>2015-01-19T08:13:37.000Z</time>
      </trkpt>
      <trkpt lat="46.32044" lon="-0.85205">
        <ele>4.8000001907349</ele>
        <time>2015-01-19T08:13:47.000Z</time>
      </trkpt>
      <trkpt lat="46.32051" lon="-0.85222">
        <ele>4.8000001907349</ele>
        <time>2015-01-19T08:13:57.000Z</time>
      </trkpt>
      <trkpt lat="46.32062" lon="-0.85244">
        <ele>5</ele>
        <time>2015-01-19T08:14:11.000Z</time>
      </trkpt>
      <trkpt lat="46.3207" lon="-0.85263">
        <ele>5</ele>
        <time>2015-01-19T08:14:22.000Z</time>
      </trkpt>
      <trkpt lat="46.32079" lon="-0.85282">
        <ele>5.1999998092651</ele>
        <time>2015-01-19T08:14:34.000Z</time>
      </trkpt>
      <trkpt lat="46.32088" lon="-0.85302">
        <ele>5.5999999046326</ele>
        <time>2015-01-19T08:14:46.000Z</time>
      </trkpt>
      <trkpt lat="46.32095" lon="-0.85322">
        <ele>5.8000001907349</ele>
        <time>2015-01-19T08:14:57.000Z</time>
      </trkpt>
      <trkpt lat="46.32104" lon="-0.85346">
        <ele>6</ele>
        <time>2015-01-19T08:15:11.000Z</time>
      </trkpt>
      <trkpt lat="46.32113" lon="-0.85366">
        <ele>5.8000001907349</ele>
        <time>2015-01-19T08:15:23.000Z</time>
      </trkpt>
      <trkpt lat="46.32122" lon="-0.85388">
        <ele>5.8000001907349</ele>
        <time>2015-01-19T08:15:36.000Z</time>
      </trkpt>
      <trkpt lat="46.32131" lon="-0.85409">
        <ele>5.8000001907349</ele>
        <time>2015-01-19T08:15:49.000Z</time>
      </trkpt>
      <trkpt lat="46.32141" lon="-0.85429">
        <ele>5.1999998092651</ele>
        <time>2015-01-19T08:16:01.000Z</time>
      </trkpt>
      <trkpt lat="46.32151" lon="-0.85452">
        <ele>4.5999999046326</ele>
        <time>2015-01-19T08:16:15.000Z</time>
      </trkpt>
      <trkpt lat="46.32161" lon="-0.85471">
        <ele>4.5999999046326</ele>
        <time>2015-01-19T08:16:27.000Z</time>
      </trkpt>
      <trkpt lat="46.32171" lon="-0.85494">
        <ele>5</ele>
        <time>2015-01-19T08:16:41.000Z</time>
      </trkpt>
      <trkpt lat="46.32181" lon="-0.85514">
        <ele>5.1999998092651</ele>
        <time>2015-01-19T08:16:53.000Z</time>
      </trkpt>
      <trkpt lat="46.32191" lon="-0.85532">
        <ele>4.8000001907349</ele>
        <time>2015-01-19T08:17:04.000Z</time>
      </trkpt>
      <trkpt lat="46.322" lon="-0.85549">
        <ele>4.5999999046326</ele>
        <time>2015-01-19T08:17:14.000Z</time>
      </trkpt>
      <trkpt lat="46.32209" lon="-0.85562">
        <ele>4.4000000953674</ele>
        <time>2015-01-19T08:17:24.000Z</time>
      </trkpt>
      <trkpt lat="46.32218" lon="-0.85572">
        <ele>4.5999999046326</ele>
        <time>2015-01-19T08:17:33.000Z</time>
      </trkpt>
      <trkpt lat="46.32227" lon="-0.85579">
        <ele>4.4000000953674</ele>
        <time>2015-01-19T08:17:40.000Z</time>
      </trkpt>
      <trkpt lat="46.32234" lon="-0.85581">
        <ele>4.1999998092651</ele>
        <time>2015-01-19T08:17:47.000Z</time>
      </trkpt>
      <trkpt lat="46.32236" lon="-0.85581">
        <ele>4.1999998092651</ele>
        <time>2015-01-19T08:17:48.000Z</time>
      </trkpt>
      <trkpt lat="46.3226" lon="-0.8558">
        <ele>3.4000000953674</ele>
        <time>2015-01-19T08:18:06.000Z</time>
      </trkpt>
      <trkpt lat="46.32273" lon="-0.85576">
        <ele>3</ele>
        <time>2015-01-19T08:18:16.000Z</time>
      </trkpt>
      <trkpt lat="46.32284" lon="-0.85571">
        <ele>2.7999999523163</ele>
        <time>2015-01-19T08:18:24.000Z</time>
      </trkpt>
      <trkpt lat="46.32293" lon="-0.85564">
        <ele>2.5999999046326</ele>
        <time>2015-01-19T08:18:31.000Z</time>
      </trkpt>
      <trkpt lat="46.32301" lon="-0.85552">
        <ele>2.5999999046326</ele>
        <time>2015-01-19T08:18:39.000Z</time>
      </trkpt>
      <trkpt lat="46.32308" lon="-0.85542">
        <ele>2.5999999046326</ele>
        <time>2015-01-19T08:18:46.000Z</time>
      </trkpt>
      <trkpt lat="46.32331" lon="-0.85513">
        <ele>3</ele>
        <time>2015-01-19T08:19:07.000Z</time>
      </trkpt>
      <trkpt lat="46.32342" lon="-0.85504">
        <ele>3.2000000476837</ele>
        <time>2015-01-19T08:19:16.000Z</time>
      </trkpt>
      <trkpt lat="46.32353" lon="-0.85498">
        <ele>3.4000000953674</ele>
        <time>2015-01-19T08:19:24.000Z</time>
      </trkpt>
      <trkpt lat="46.32363" lon="-0.85494">
        <ele>3.4000000953674</ele>
        <time>2015-01-19T08:19:33.000Z</time>
      </trkpt>
      <trkpt lat="46.32376" lon="-0.85491">
        <ele>3.5999999046326</ele>
        <time>2015-01-19T08:19:42.000Z</time>
      </trkpt>
      <trkpt lat="46.32387" lon="-0.85488">
        <ele>3.5999999046326</ele>
        <time>2015-01-19T08:19:50.000Z</time>
      </trkpt>
      <trkpt lat="46.32405" lon="-0.85484">
        <ele>3.7999999523163</ele>
        <time>2015-01-19T08:20:03.000Z</time>
      </trkpt>
      <trkpt lat="46.32421" lon="-0.85482">
        <ele>3.7999999523163</ele>
        <time>2015-01-19T08:20:14.000Z</time>
      </trkpt>
      <trkpt lat="46.32439" lon="-0.8548">
        <ele>3.7999999523163</ele>
        <time>2015-01-19T08:20:26.000Z</time>
      </trkpt>
      <trkpt lat="46.32456" lon="-0.85481">
        <ele>3.7999999523163</ele>
        <time>2015-01-19T08:20:38.000Z</time>
      </trkpt>
      <trkpt lat="46.32467" lon="-0.85484">
        <ele>3.7999999523163</ele>
        <time>2015-01-19T08:20:46.000Z</time>
      </trkpt>
      <trkpt lat="46.32484" lon="-0.8549">
        <ele>3.5999999046326</ele>
        <time>2015-01-19T08:20:58.000Z</time>
      </trkpt>
      <trkpt lat="46.32509" lon="-0.85502">
        <ele>2.5999999046326</ele>
        <time>2015-01-19T08:21:18.000Z</time>
      </trkpt>
      <trkpt lat="46.32523" lon="-0.85509">
        <ele>2</ele>
        <time>2015-01-19T08:21:29.000Z</time>
      </trkpt>
      <trkpt lat="46.32538" lon="-0.85517">
        <ele>2</ele>
        <time>2015-01-19T08:21:40.000Z</time>
      </trkpt>
      <trkpt lat="46.32552" lon="-0.85519">
        <ele>2</ele>
        <time>2015-01-19T08:21:50.000Z</time>
      </trkpt>
      <trkpt lat="46.32566" lon="-0.85517">
        <ele>2</ele>
        <time>2015-01-19T08:22:00.000Z</time>
      </trkpt>
      <trkpt lat="46.32578" lon="-0.85517">
        <ele>2</ele>
        <time>2015-01-19T08:22:09.000Z</time>
      </trkpt>
      <trkpt lat="46.32591" lon="-0.85525">
        <ele>2</ele>
        <time>2015-01-19T08:22:19.000Z</time>
      </trkpt>
      <trkpt lat="46.32603" lon="-0.85534">
        <ele>1.7999999523163</ele>
        <time>2015-01-19T08:22:29.000Z</time>
      </trkpt>
      <trkpt lat="46.32621" lon="-0.85545">
        <ele>1.3999999761581</ele>
        <time>2015-01-19T08:22:43.000Z</time>
      </trkpt>
      <trkpt lat="46.32633" lon="-0.85553">
        <ele>1.2000000476837</ele>
        <time>2015-01-19T08:22:53.000Z</time>
      </trkpt>
      <trkpt lat="46.32651" lon="-0.85564">
        <ele>1</ele>
        <time>2015-01-19T08:23:07.000Z</time>
      </trkpt>
      <trkpt lat="46.32666" lon="-0.85573">
        <ele>1</ele>
        <time>2015-01-19T08:23:19.000Z</time>
      </trkpt>
      <trkpt lat="46.32678" lon="-0.85581">
        <ele>1</ele>
        <time>2015-01-19T08:23:29.000Z</time>
      </trkpt>
      <trkpt lat="46.32691" lon="-0.85588">
        <ele>0.80000001192093</ele>
        <time>2015-01-19T08:23:39.000Z</time>
      </trkpt>
      <trkpt lat="46.32706" lon="-0.85598">
        <ele>1</ele>
        <time>2015-01-19T08:23:51.000Z</time>
      </trkpt>
      <trkpt lat="46.32722" lon="-0.85609">
        <ele>1.2000000476837</ele>
        <time>2015-01-19T08:24:03.000Z</time>
      </trkpt>
      <trkpt lat="46.32732" lon="-0.85615">
        <ele>1.3999999761581</ele>
        <time>2015-01-19T08:24:11.000Z</time>
      </trkpt>
      <trkpt lat="46.32744" lon="-0.85624">
        <ele>1.7999999523163</ele>
        <time>2015-01-19T08:24:22.000Z</time>
      </trkpt>
      <trkpt lat="46.32754" lon="-0.8563">
        <ele>1.7999999523163</ele>
        <time>2015-01-19T08:24:30.000Z</time>
      </trkpt>
      <trkpt lat="46.32763" lon="-0.85635">
        <ele>1.6000000238419</ele>
        <time>2015-01-19T08:24:37.000Z</time>
      </trkpt>
      <trkpt lat="46.32776" lon="-0.85643">
        <ele>1.3999999761581</ele>
        <time>2015-01-19T08:24:47.000Z</time>
      </trkpt>
      <trkpt lat="46.32793" lon="-0.85654">
        <ele>1.2000000476837</ele>
        <time>2015-01-19T08:24:59.000Z</time>
      </trkpt>
      <trkpt lat="46.32809" lon="-0.85664">
        <ele>1.2000000476837</ele>
        <time>2015-01-19T08:25:11.000Z</time>
      </trkpt>
      <trkpt lat="46.32823" lon="-0.85674">
        <ele>1.6000000238419</ele>
        <time>2015-01-19T08:25:22.000Z</time>
      </trkpt>
      <trkpt lat="46.32839" lon="-0.85684">
        <ele>1.7999999523163</ele>
        <time>2015-01-19T08:25:34.000Z</time>
      </trkpt>
      <trkpt lat="46.32854" lon="-0.85694">
        <ele>2</ele>
        <time>2015-01-19T08:25:46.000Z</time>
      </trkpt>
      <trkpt lat="46.32884" lon="-0.85712">
        <ele>2</ele>
        <time>2015-01-19T08:26:09.000Z</time>
      </trkpt>
      <trkpt lat="46.32895" lon="-0.85719">
        <ele>2</ele>
        <time>2015-01-19T08:26:17.000Z</time>
      </trkpt>
      <trkpt lat="46.32913" lon="-0.85729">
        <ele>1.7999999523163</ele>
        <time>2015-01-19T08:26:30.000Z</time>
      </trkpt>
      <trkpt lat="46.3293" lon="-0.8574">
        <ele>1.6000000238419</ele>
        <time>2015-01-19T08:26:43.000Z</time>
      </trkpt>
      <trkpt lat="46.32943" lon="-0.85749">
        <ele>1.3999999761581</ele>
        <time>2015-01-19T08:26:53.000Z</time>
      </trkpt>
      <trkpt lat="46.32958" lon="-0.85758">
        <ele>1.3999999761581</ele>
        <time>2015-01-19T08:27:04.000Z</time>
      </trkpt>
      <trkpt lat="46.32971" lon="-0.85765">
        <ele>1.6000000238419</ele>
        <time>2015-01-19T08:27:14.000Z</time>
      </trkpt>
      <trkpt lat="46.32985" lon="-0.85774">
        <ele>1.6000000238419</ele>
        <time>2015-01-19T08:27:25.000Z</time>
      </trkpt>
      <trkpt lat="46.32998" lon="-0.85781">
        <ele>1.7999999523163</ele>
        <time>2015-01-19T08:27:36.000Z</time>
      </trkpt>
      <trkpt lat="46.33011" lon="-0.85789">
        <ele>1.7999999523163</ele>
        <time>2015-01-19T08:27:47.000Z</time>
      </trkpt>
      <trkpt lat="46.3304" lon="-0.85807">
        <ele>2</ele>
        <time>2015-01-19T08:28:13.000Z</time>
      </trkpt>
      <trkpt lat="46.33052" lon="-0.85814">
        <ele>2</ele>
        <time>2015-01-19T08:28:22.000Z</time>
      </trkpt>
      <trkpt lat="46.33057" lon="-0.85817">
        <ele>1.7999999523163</ele>
        <time>2015-01-19T08:28:27.000Z</time>
      </trkpt>
      <trkpt lat="46.3306" lon="-0.85815">
        <ele>1.7999999523163</ele>
        <time>2015-01-19T08:28:33.000Z</time>
      </trkpt>
      <trkpt lat="46.33061" lon="-0.8581">
        <ele>2</ele>
        <time>2015-01-19T08:28:46.000Z</time>
      </trkpt>
      <trkpt lat="46.33061" lon="-0.85801">
        <ele>2</ele>
        <time>2015-01-19T08:28:51.000Z</time>
      </trkpt>
      <trkpt lat="46.33061" lon="-0.85786">
        <ele>1.7999999523163</ele>
        <time>2015-01-19T08:29:01.000Z</time>
      </trkpt>
      <trkpt lat="46.33064" lon="-0.8577">
        <ele>1.6000000238419</ele>
        <time>2015-01-19T08:29:11.000Z</time>
      </trkpt>
      <trkpt lat="46.3307" lon="-0.85752">
        <ele>1.3999999761581</ele>
        <time>2015-01-19T08:29:21.000Z</time>
      </trkpt>
      <trkpt lat="46.33076" lon="-0.85733">
        <ele>1.2000000476837</ele>
        <time>2015-01-19T08:29:31.000Z</time>
      </trkpt>
      <trkpt lat="46.33083" lon="-0.85709">
        <ele>1</ele>
        <time>2015-01-19T08:29:43.000Z</time>
      </trkpt>
      <trkpt lat="46.3309" lon="-0.85687">
        <ele>1.2000000476837</ele>
        <time>2015-01-19T08:29:54.000Z</time>
      </trkpt>
      <trkpt lat="46.33097" lon="-0.85663">
        <ele>1.3999999761581</ele>
        <time>2015-01-19T08:30:06.000Z</time>
      </trkpt>
      <trkpt lat="46.33105" lon="-0.85637">
        <ele>1.6000000238419</ele>
        <time>2015-01-19T08:30:19.000Z</time>
      </trkpt>
      <trkpt lat="46.33112" lon="-0.85618">
        <ele>2</ele>
        <time>2015-01-19T08:30:29.000Z</time>
      </trkpt>
      <trkpt lat="46.33119" lon="-0.85594">
        <ele>2.4000000953674</ele>
        <time>2015-01-19T08:30:41.000Z</time>
      </trkpt>
      <trkpt lat="46.33126" lon="-0.8557">
        <ele>2.5999999046326</ele>
        <time>2015-01-19T08:30:53.000Z</time>
      </trkpt>
      <trkpt lat="46.33134" lon="-0.85545">
        <ele>2.5999999046326</ele>
        <time>2015-01-19T08:31:06.000Z</time>
      </trkpt>
      <trkpt lat="46.33139" lon="-0.85529">
        <ele>2.4000000953674</ele>
        <time>2015-01-19T08:31:14.000Z</time>
      </trkpt>
      <trkpt lat="46.33147" lon="-0.85506">
        <ele>2.4000000953674</ele>
        <time>2015-01-19T08:31:26.000Z</time>
      </trkpt>
      <trkpt lat="46.33154" lon="-0.85485">
        <ele>2.2000000476837</ele>
        <time>2015-01-19T08:31:37.000Z</time>
      </trkpt>
      <trkpt lat="46.33161" lon="-0.85462">
        <ele>2</ele>
        <time>2015-01-19T08:31:49.000Z</time>
      </trkpt>
      <trkpt lat="46.33169" lon="-0.85436">
        <ele>2.2000000476837</ele>
        <time>2015-01-19T08:32:02.000Z</time>
      </trkpt>
      <trkpt lat="46.33174" lon="-0.85419">
        <ele>2.4000000953674</ele>
        <time>2015-01-19T08:32:11.000Z</time>
      </trkpt>
      <trkpt lat="46.33181" lon="-0.854">
        <ele>2.4000000953674</ele>
        <time>2015-01-19T08:32:21.000Z</time>
      </trkpt>
      <trkpt lat="46.33187" lon="-0.8538">
        <ele>2.4000000953674</ele>
        <time>2015-01-19T08:32:32.000Z</time>
      </trkpt>
      <trkpt lat="46.33195" lon="-0.85357">
        <ele>2</ele>
        <time>2015-01-19T08:32:44.000Z</time>
      </trkpt>
      <trkpt lat="46.332" lon="-0.85338">
        <ele>1.7999999523163</ele>
        <time>2015-01-19T08:32:54.000Z</time>
      </trkpt>
      <trkpt lat="46.33208" lon="-0.85313">
        <ele>1.6000000238419</ele>
        <time>2015-01-19T08:33:07.000Z</time>
      </trkpt>
      <trkpt lat="46.33216" lon="-0.85289">
        <ele>1.6000000238419</ele>
        <time>2015-01-19T08:33:19.000Z</time>
      </trkpt>
      <trkpt lat="46.33223" lon="-0.85266">
        <ele>1.6000000238419</ele>
        <time>2015-01-19T08:33:31.000Z</time>
      </trkpt>
      <trkpt lat="46.3323" lon="-0.85241">
        <ele>1.7999999523163</ele>
        <time>2015-01-19T08:33:43.000Z</time>
      </trkpt>
      <trkpt lat="46.33237" lon="-0.85218">
        <ele>2</ele>
        <time>2015-01-19T08:33:55.000Z</time>
      </trkpt>
      <trkpt lat="46.33245" lon="-0.8519">
        <ele>2</ele>
        <time>2015-01-19T08:34:09.000Z</time>
      </trkpt>
      <trkpt lat="46.33252" lon="-0.85166">
        <ele>2.2000000476837</ele>
        <time>2015-01-19T08:34:21.000Z</time>
      </trkpt>
      <trkpt lat="46.3326" lon="-0.85142">
        <ele>2.2000000476837</ele>
        <time>2015-01-19T08:34:33.000Z</time>
      </trkpt>
      <trkpt lat="46.33266" lon="-0.8512">
        <ele>2.4000000953674</ele>
        <time>2015-01-19T08:34:44.000Z</time>
      </trkpt>
      <trkpt lat="46.33273" lon="-0.85096">
        <ele>2.5999999046326</ele>
        <time>2015-01-19T08:34:56.000Z</time>
      </trkpt>
      <trkpt lat="46.3328" lon="-0.85072">
        <ele>2.5999999046326</ele>
        <time>2015-01-19T08:35:08.000Z</time>
      </trkpt>
      <trkpt lat="46.33286" lon="-0.85049">
        <ele>2.5999999046326</ele>
        <time>2015-01-19T08:35:20.000Z</time>
      </trkpt>
      <trkpt lat="46.33292" lon="-0.85027">
        <ele>2.5999999046326</ele>
        <time>2015-01-19T08:35:31.000Z</time>
      </trkpt>
      <trkpt lat="46.33298" lon="-0.85006">
        <ele>2.4000000953674</ele>
        <time>2015-01-19T08:35:42.000Z</time>
      </trkpt>
      <trkpt lat="46.33305" lon="-0.84981">
        <ele>2.2000000476837</ele>
        <time>2015-01-19T08:35:55.000Z</time>
      </trkpt>
      <trkpt lat="46.33311" lon="-0.84958">
        <ele>2</ele>
        <time>2015-01-19T08:36:07.000Z</time>
      </trkpt>
      <trkpt lat="46.33318" lon="-0.84934">
        <ele>2</ele>
        <time>2015-01-19T08:36:19.000Z</time>
      </trkpt>
      <trkpt lat="46.33326" lon="-0.84909">
        <ele>1.7999999523163</ele>
        <time>2015-01-19T08:36:32.000Z</time>
      </trkpt>
      <trkpt lat="46.33334" lon="-0.84886">
        <ele>1.7999999523163</ele>
        <time>2015-01-19T08:36:44.000Z</time>
      </trkpt>
      <trkpt lat="46.33342" lon="-0.84868">
        <ele>2</ele>
        <time>2015-01-19T08:36:54.000Z</time>
      </trkpt>
      <trkpt lat="46.33353" lon="-0.84846">
        <ele>2</ele>
        <time>2015-01-19T08:37:07.000Z</time>
      </trkpt>
      <trkpt lat="46.33366" lon="-0.84828">
        <ele>1.7999999523163</ele>
        <time>2015-01-19T08:37:18.000Z</time>
      </trkpt>
      <trkpt lat="46.33377" lon="-0.84813">
        <ele>1.7999999523163</ele>
        <time>2015-01-19T08:37:28.000Z</time>
      </trkpt>
      <trkpt lat="46.33389" lon="-0.84799">
        <ele>1.7999999523163</ele>
        <time>2015-01-19T08:37:38.000Z</time>
      </trkpt>
      <trkpt lat="46.33402" lon="-0.84786">
        <ele>1.7999999523163</ele>
        <time>2015-01-19T08:37:48.000Z</time>
      </trkpt>
      <trkpt lat="46.33418" lon="-0.8477">
        <ele>1.7999999523163</ele>
        <time>2015-01-19T08:38:00.000Z</time>
      </trkpt>
      <trkpt lat="46.33434" lon="-0.84756">
        <ele>1.7999999523163</ele>
        <time>2015-01-19T08:38:12.000Z</time>
      </trkpt>
      <trkpt lat="46.33446" lon="-0.84745">
        <ele>1.7999999523163</ele>
        <time>2015-01-19T08:38:21.000Z</time>
      </trkpt>
      <trkpt lat="46.33456" lon="-0.84737">
        <ele>1.7999999523163</ele>
        <time>2015-01-19T08:38:29.000Z</time>
      </trkpt>
      <trkpt lat="46.33466" lon="-0.84728">
        <ele>1.7999999523163</ele>
        <time>2015-01-19T08:38:37.000Z</time>
      </trkpt>
      <trkpt lat="46.33478" lon="-0.84717">
        <ele>2</ele>
        <time>2015-01-19T08:38:47.000Z</time>
      </trkpt>
      <trkpt lat="46.33489" lon="-0.84706">
        <ele>1.7999999523163</ele>
        <time>2015-01-19T08:38:56.000Z</time>
      </trkpt>
      <trkpt lat="46.335" lon="-0.84695">
        <ele>2</ele>
        <time>2015-01-19T08:39:06.000Z</time>
      </trkpt>
      <trkpt lat="46.33513" lon="-0.84683">
        <ele>2</ele>
        <time>2015-01-19T08:39:17.000Z</time>
      </trkpt>
      <trkpt lat="46.33528" lon="-0.84669">
        <ele>2</ele>
        <time>2015-01-19T08:39:29.000Z</time>
      </trkpt>
      <trkpt lat="46.33543" lon="-0.84656">
        <ele>2</ele>
        <time>2015-01-19T08:39:40.000Z</time>
      </trkpt>
      <trkpt lat="46.33554" lon="-0.84645">
        <ele>2</ele>
        <time>2015-01-19T08:39:49.000Z</time>
      </trkpt>
      <trkpt lat="46.33586" lon="-0.8461">
        <ele>3</ele>
        <time>2015-01-19T08:40:17.000Z</time>
      </trkpt>
      <trkpt lat="46.33599" lon="-0.84602">
        <ele>3.4000000953674</ele>
        <time>2015-01-19T08:40:27.000Z</time>
      </trkpt>
      <trkpt lat="46.3361" lon="-0.84603">
        <ele>3.2000000476837</ele>
        <time>2015-01-19T08:40:35.000Z</time>
      </trkpt>
      <trkpt lat="46.33622" lon="-0.84608">
        <ele>3.2000000476837</ele>
        <time>2015-01-19T08:40:44.000Z</time>
      </trkpt>
      <trkpt lat="46.33634" lon="-0.84609">
        <ele>3</ele>
        <time>2015-01-19T08:40:53.000Z</time>
      </trkpt>
      <trkpt lat="46.33642" lon="-0.84603">
        <ele>3.2000000476837</ele>
        <time>2015-01-19T08:41:00.000Z</time>
      </trkpt>
      <trkpt lat="46.33651" lon="-0.84596">
        <ele>3.4000000953674</ele>
        <time>2015-01-19T08:41:07.000Z</time>
      </trkpt>
      <trkpt lat="46.33659" lon="-0.84587">
        <ele>3.5999999046326</ele>
        <time>2015-01-19T08:41:15.000Z</time>
      </trkpt>
      <trkpt lat="46.33669" lon="-0.84576">
        <ele>3.7999999523163</ele>
        <time>2015-01-19T08:41:24.000Z</time>
      </trkpt>
      <trkpt lat="46.33679" lon="-0.84565">
        <ele>4</ele>
        <time>2015-01-19T08:41:33.000Z</time>
      </trkpt>
      <trkpt lat="46.33692" lon="-0.8455">
        <ele>4</ele>
        <time>2015-01-19T08:41:44.000Z</time>
      </trkpt>
      <trkpt lat="46.33702" lon="-0.84539">
        <ele>4</ele>
        <time>2015-01-19T08:41:53.000Z</time>
      </trkpt>
      <trkpt lat="46.33717" lon="-0.84523">
        <ele>4.1999998092651</ele>
        <time>2015-01-19T08:42:05.000Z</time>
      </trkpt>
      <trkpt lat="46.33727" lon="-0.84511">
        <ele>4.1999998092651</ele>
        <time>2015-01-19T08:42:14.000Z</time>
      </trkpt>
      <trkpt lat="46.33739" lon="-0.84499">
        <ele>4</ele>
        <time>2015-01-19T08:42:23.000Z</time>
      </trkpt>
      <trkpt lat="46.33748" lon="-0.84489">
        <ele>4</ele>
        <time>2015-01-19T08:42:30.000Z</time>
      </trkpt>
      <trkpt lat="46.33753" lon="-0.84484">
        <ele>4</ele>
        <time>2015-01-19T08:42:34.000Z</time>
      </trkpt>
      <trkpt lat="46.33763" lon="-0.8447">
        <ele>3.7999999523163</ele>
        <time>2015-01-19T08:42:43.000Z</time>
      </trkpt>
      <trkpt lat="46.33771" lon="-0.84462">
        <ele>3.7999999523163</ele>
        <time>2015-01-19T08:42:49.000Z</time>
      </trkpt>
      <trkpt lat="46.33781" lon="-0.8445">
        <ele>3.7999999523163</ele>
        <time>2015-01-19T08:42:57.000Z</time>
      </trkpt>
      <trkpt lat="46.33804" lon="-0.84424">
        <ele>3.5999999046326</ele>
        <time>2015-01-19T08:43:16.000Z</time>
      </trkpt>
      <trkpt lat="46.33817" lon="-0.84408">
        <ele>3.4000000953674</ele>
        <time>2015-01-19T08:43:27.000Z</time>
      </trkpt>
      <trkpt lat="46.33826" lon="-0.84396">
        <ele>3.4000000953674</ele>
        <time>2015-01-19T08:43:35.000Z</time>
      </trkpt>
      <trkpt lat="46.33837" lon="-0.84384">
        <ele>3.2000000476837</ele>
        <time>2015-01-19T08:43:44.000Z</time>
      </trkpt>
      <trkpt lat="46.33848" lon="-0.8437">
        <ele>3</ele>
        <time>2015-01-19T08:43:54.000Z</time>
      </trkpt>
      <trkpt lat="46.33861" lon="-0.84354">
        <ele>2.7999999523163</ele>
        <time>2015-01-19T08:44:05.000Z</time>
      </trkpt>
      <trkpt lat="46.33872" lon="-0.8434">
        <ele>2.4000000953674</ele>
        <time>2015-01-19T08:44:15.000Z</time>
      </trkpt>
      <trkpt lat="46.33879" lon="-0.8433">
        <ele>2.4000000953674</ele>
        <time>2015-01-19T08:44:22.000Z</time>
      </trkpt>
      <trkpt lat="46.3389" lon="-0.84316">
        <ele>2.2000000476837</ele>
        <time>2015-01-19T08:44:32.000Z</time>
      </trkpt>
      <trkpt lat="46.33899" lon="-0.84306">
        <ele>2</ele>
        <time>2015-01-19T08:44:40.000Z</time>
      </trkpt>
      <trkpt lat="46.33908" lon="-0.84295">
        <ele>2.2000000476837</ele>
        <time>2015-01-19T08:44:48.000Z</time>
      </trkpt>
      <trkpt lat="46.33921" lon="-0.84279">
        <ele>2.4000000953674</ele>
        <time>2015-01-19T08:44:59.000Z</time>
      </trkpt>
      <trkpt lat="46.33931" lon="-0.84266">
        <ele>2.4000000953674</ele>
        <time>2015-01-19T08:45:08.000Z</time>
      </trkpt>
      <trkpt lat="46.33942" lon="-0.84253">
        <ele>2.5999999046326</ele>
        <time>2015-01-19T08:45:17.000Z</time>
      </trkpt>
      <trkpt lat="46.33951" lon="-0.84243">
        <ele>2.7999999523163</ele>
        <time>2015-01-19T08:45:25.000Z</time>
      </trkpt>
      <trkpt lat="46.3396" lon="-0.84232">
        <ele>2.7999999523163</ele>
        <time>2015-01-19T08:45:33.000Z</time>
      </trkpt>
      <trkpt lat="46.33969" lon="-0.84221">
        <ele>3</ele>
        <time>2015-01-19T08:45:41.000Z</time>
      </trkpt>
      <trkpt lat="46.33976" lon="-0.8421">
        <ele>3</ele>
        <time>2015-01-19T08:45:48.000Z</time>
      </trkpt>
      <trkpt lat="46.33986" lon="-0.84199">
        <ele>3</ele>
        <time>2015-01-19T08:45:56.000Z</time>
      </trkpt>
      <trkpt lat="46.33997" lon="-0.84183">
        <ele>3</ele>
        <time>2015-01-19T08:46:06.000Z</time>
      </trkpt>
      <trkpt lat="46.34009" lon="-0.84166">
        <ele>3</ele>
        <time>2015-01-19T08:46:16.000Z</time>
      </trkpt>
      <trkpt lat="46.34018" lon="-0.84152">
        <ele>3</ele>
        <time>2015-01-19T08:46:25.000Z</time>
      </trkpt>
      <trkpt lat="46.34028" lon="-0.84139">
        <ele>3</ele>
        <time>2015-01-19T08:46:34.000Z</time>
      </trkpt>
      <trkpt lat="46.34038" lon="-0.84127">
        <ele>2.7999999523163</ele>
        <time>2015-01-19T08:46:43.000Z</time>
      </trkpt>
      <trkpt lat="46.34051" lon="-0.84109">
        <ele>2.5999999046326</ele>
        <time>2015-01-19T08:46:55.000Z</time>
      </trkpt>
      <trkpt lat="46.34059" lon="-0.84098">
        <ele>2.5999999046326</ele>
        <time>2015-01-19T08:47:03.000Z</time>
      </trkpt>
      <trkpt lat="46.34065" lon="-0.84088">
        <ele>2.4000000953674</ele>
        <time>2015-01-19T08:47:10.000Z</time>
      </trkpt>
      <trkpt lat="46.34071" lon="-0.84085">
        <ele>2.5999999046326</ele>
        <time>2015-01-19T08:47:14.000Z</time>
      </trkpt>
      <trkpt lat="46.34074" lon="-0.84079">
        <ele>2.5999999046326</ele>
        <time>2015-01-19T08:47:19.000Z</time>
      </trkpt>
      <trkpt lat="46.34077" lon="-0.84075">
        <ele>2.5999999046326</ele>
        <time>2015-01-19T08:47:22.000Z</time>
      </trkpt>
      <trkpt lat="46.34081" lon="-0.84067">
        <ele>2.5999999046326</ele>
        <time>2015-01-19T08:47:27.000Z</time>
      </trkpt>
      <trkpt lat="46.34089" lon="-0.84056">
        <ele>2.5999999046326</ele>
        <time>2015-01-19T08:47:35.000Z</time>
      </trkpt>
      <trkpt lat="46.34098" lon="-0.84046">
        <ele>2.5999999046326</ele>
        <time>2015-01-19T08:47:42.000Z</time>
      </trkpt>
      <trkpt lat="46.34108" lon="-0.84033">
        <ele>2.7999999523163</ele>
        <time>2015-01-19T08:47:51.000Z</time>
      </trkpt>
      <trkpt lat="46.34119" lon="-0.84018">
        <ele>2.7999999523163</ele>
        <time>2015-01-19T08:48:01.000Z</time>
      </trkpt>
      <trkpt lat="46.34131" lon="-0.84">
        <ele>3</ele>
        <time>2015-01-19T08:48:12.000Z</time>
      </trkpt>
      <trkpt lat="46.34141" lon="-0.83987">
        <ele>3</ele>
        <time>2015-01-19T08:48:21.000Z</time>
      </trkpt>
      <trkpt lat="46.34151" lon="-0.83972">
        <ele>3</ele>
        <time>2015-01-19T08:48:30.000Z</time>
      </trkpt>
      <trkpt lat="46.34157" lon="-0.83962">
        <ele>3</ele>
        <time>2015-01-19T08:48:36.000Z</time>
      </trkpt>
      <trkpt lat="46.34167" lon="-0.83945">
        <ele>3</ele>
        <time>2015-01-19T08:48:46.000Z</time>
      </trkpt>
      <trkpt lat="46.34178" lon="-0.83928">
        <ele>2.7999999523163</ele>
        <time>2015-01-19T08:48:56.000Z</time>
      </trkpt>
      <trkpt lat="46.34187" lon="-0.83911">
        <ele>2.7999999523163</ele>
        <time>2015-01-19T08:49:06.000Z</time>
      </trkpt>
      <trkpt lat="46.34196" lon="-0.83895">
        <ele>2.5999999046326</ele>
        <time>2015-01-19T08:49:15.000Z</time>
      </trkpt>
      <trkpt lat="46.34201" lon="-0.83884">
        <ele>2.7999999523163</ele>
        <time>2015-01-19T08:49:21.000Z</time>
      </trkpt>
      <trkpt lat="46.3421" lon="-0.83868">
        <ele>3</ele>
        <time>2015-01-19T08:49:30.000Z</time>
      </trkpt>
      <trkpt lat="46.34217" lon="-0.83853">
        <ele>3.2000000476837</ele>
        <time>2015-01-19T08:49:38.000Z</time>
      </trkpt>
      <trkpt lat="46.34226" lon="-0.83834">
        <ele>3.5999999046326</ele>
        <time>2015-01-19T08:49:48.000Z</time>
      </trkpt>
      <trkpt lat="46.34236" lon="-0.83811">
        <ele>3.7999999523163</ele>
        <time>2015-01-19T08:50:00.000Z</time>
      </trkpt>
      <trkpt lat="46.34245" lon="-0.83788">
        <ele>3.4000000953674</ele>
        <time>2015-01-19T08:50:12.000Z</time>
      </trkpt>
      <trkpt lat="46.34254" lon="-0.83764">
        <ele>2.7999999523163</ele>
        <time>2015-01-19T08:50:24.000Z</time>
      </trkpt>
      <trkpt lat="46.3426" lon="-0.83749">
        <ele>2.2000000476837</ele>
        <time>2015-01-19T08:50:32.000Z</time>
      </trkpt>
      <trkpt lat="46.34268" lon="-0.83729">
        <ele>1.7999999523163</ele>
        <time>2015-01-19T08:50:42.000Z</time>
      </trkpt>
      <trkpt lat="46.34276" lon="-0.8371">
        <ele>1.6000000238419</ele>
        <time>2015-01-19T08:50:52.000Z</time>
      </trkpt>
      <trkpt lat="46.34283" lon="-0.83691">
        <ele>1.7999999523163</ele>
        <time>2015-01-19T08:51:02.000Z</time>
      </trkpt>
      <trkpt lat="46.34289" lon="-0.83672">
        <ele>2</ele>
        <time>2015-01-19T08:51:12.000Z</time>
      </trkpt>
      <trkpt lat="46.34293" lon="-0.83657">
        <ele>2</ele>
        <time>2015-01-19T08:51:20.000Z</time>
      </trkpt>
      <trkpt lat="46.34297" lon="-0.83646">
        <ele>2.2000000476837</ele>
        <time>2015-01-19T08:51:26.000Z</time>
      </trkpt>
      <trkpt lat="46.34301" lon="-0.83631">
        <ele>2.2000000476837</ele>
        <time>2015-01-19T08:51:34.000Z</time>
      </trkpt>
      <trkpt lat="46.34306" lon="-0.83617">
        <ele>2.2000000476837</ele>
        <time>2015-01-19T08:51:41.000Z</time>
      </trkpt>
      <trkpt lat="46.34309" lon="-0.836">
        <ele>2</ele>
        <time>2015-01-19T08:51:50.000Z</time>
      </trkpt>
      <trkpt lat="46.34317" lon="-0.83563">
        <ele>2</ele>
        <time>2015-01-19T08:52:08.000Z</time>
      </trkpt>
      <trkpt lat="46.3432" lon="-0.83552">
        <ele>2</ele>
        <time>2015-01-19T08:52:13.000Z</time>
      </trkpt>
      <trkpt lat="46.34325" lon="-0.83531">
        <ele>2.2000000476837</ele>
        <time>2015-01-19T08:52:24.000Z</time>
      </trkpt>
      <trkpt lat="46.3433" lon="-0.83514">
        <ele>2.5999999046326</ele>
        <time>2015-01-19T08:52:33.000Z</time>
      </trkpt>
      <trkpt lat="46.34332" lon="-0.83499">
        <ele>2.5999999046326</ele>
        <time>2015-01-19T08:52:40.000Z</time>
      </trkpt>
      <trkpt lat="46.34337" lon="-0.83481">
        <ele>2.7999999523163</ele>
        <time>2015-01-19T08:52:49.000Z</time>
      </trkpt>
      <trkpt lat="46.34341" lon="-0.83466">
        <ele>3</ele>
        <time>2015-01-19T08:52:57.000Z</time>
      </trkpt>
      <trkpt lat="46.34351" lon="-0.83425">
        <ele>3</ele>
        <time>2015-01-19T08:53:17.000Z</time>
      </trkpt>
      <trkpt lat="46.34355" lon="-0.83407">
        <ele>3</ele>
        <time>2015-01-19T08:53:26.000Z</time>
      </trkpt>
      <trkpt lat="46.3436" lon="-0.83384">
        <ele>2.7999999523163</ele>
        <time>2015-01-19T08:53:37.000Z</time>
      </trkpt>
      <trkpt lat="46.34363" lon="-0.8337">
        <ele>2.5999999046326</ele>
        <time>2015-01-19T08:53:44.000Z</time>
      </trkpt>
      <trkpt lat="46.34366" lon="-0.83353">
        <ele>2.2000000476837</ele>
        <time>2015-01-19T08:53:52.000Z</time>
      </trkpt>
      <trkpt lat="46.3437" lon="-0.83335">
        <ele>1.7999999523163</ele>
        <time>2015-01-19T08:54:01.000Z</time>
      </trkpt>
      <trkpt lat="46.34373" lon="-0.83319">
        <ele>1.6000000238419</ele>
        <time>2015-01-19T08:54:09.000Z</time>
      </trkpt>
      <trkpt lat="46.34376" lon="-0.83303">
        <ele>1.6000000238419</ele>
        <time>2015-01-19T08:54:17.000Z</time>
      </trkpt>
      <trkpt lat="46.3438" lon="-0.83282">
        <ele>1.6000000238419</ele>
        <time>2015-01-19T08:54:27.000Z</time>
      </trkpt>
      <trkpt lat="46.34383" lon="-0.83265">
        <ele>1.7999999523163</ele>
        <time>2015-01-19T08:54:35.000Z</time>
      </trkpt>
      <trkpt lat="46.34386" lon="-0.83255">
        <ele>1.7999999523163</ele>
        <time>2015-01-19T08:54:41.000Z</time>
      </trkpt>
      <trkpt lat="46.34388" lon="-0.83244">
        <ele>2</ele>
        <time>2015-01-19T08:54:47.000Z</time>
      </trkpt>
      <trkpt lat="46.34396" lon="-0.83207">
        <ele>2</ele>
        <time>2015-01-19T08:55:05.000Z</time>
      </trkpt>
      <trkpt lat="46.34398" lon="-0.83195">
        <ele>2</ele>
        <time>2015-01-19T08:55:11.000Z</time>
      </trkpt>
      <trkpt lat="46.34399" lon="-0.83193">
        <ele>2</ele>
        <time>2015-01-19T08:55:12.000Z</time>
      </trkpt>
      <trkpt lat="46.34403" lon="-0.83175">
        <ele>2</ele>
        <time>2015-01-19T08:55:21.000Z</time>
      </trkpt>
      <trkpt lat="46.34406" lon="-0.83161">
        <ele>2</ele>
        <time>2015-01-19T08:55:28.000Z</time>
      </trkpt>
      <trkpt lat="46.3441" lon="-0.83147">
        <ele>2</ele>
        <time>2015-01-19T08:55:35.000Z</time>
      </trkpt>
      <trkpt lat="46.34412" lon="-0.83133">
        <ele>2</ele>
        <time>2015-01-19T08:55:42.000Z</time>
      </trkpt>
      <trkpt lat="46.34416" lon="-0.83113">
        <ele>2</ele>
        <time>2015-01-19T08:55:52.000Z</time>
      </trkpt>
      <trkpt lat="46.34424" lon="-0.83065">
        <ele>2.5999999046326</ele>
        <time>2015-01-19T08:56:16.000Z</time>
      </trkpt>
      <trkpt lat="46.34428" lon="-0.83043">
        <ele>2.7999999523163</ele>
        <time>2015-01-19T08:56:27.000Z</time>
      </trkpt>
      <trkpt lat="46.34432" lon="-0.83022">
        <ele>3</ele>
        <time>2015-01-19T08:56:37.000Z</time>
      </trkpt>
      <trkpt lat="46.34434" lon="-0.83008">
        <ele>2.7999999523163</ele>
        <time>2015-01-19T08:56:44.000Z</time>
      </trkpt>
      <trkpt lat="46.34434" lon="-0.8299">
        <ele>2.5999999046326</ele>
        <time>2015-01-19T08:56:53.000Z</time>
      </trkpt>
      <trkpt lat="46.34432" lon="-0.82971">
        <ele>2.4000000953674</ele>
        <time>2015-01-19T08:57:04.000Z</time>
      </trkpt>
      <trkpt lat="46.34431" lon="-0.82968">
        <ele>2.4000000953674</ele>
        <time>2015-01-19T08:57:07.000Z</time>
      </trkpt>
      <trkpt lat="46.3443" lon="-0.82959">
        <ele>2.5999999046326</ele>
        <time>2015-01-19T08:57:17.000Z</time>
      </trkpt>
      <trkpt lat="46.34427" lon="-0.8295">
        <ele>2.5999999046326</ele>
        <time>2015-01-19T08:58:01.000Z</time>
      </trkpt>
      <trkpt lat="46.34427" lon="-0.8294">
        <ele>2.5999999046326</ele>
        <time>2015-01-19T08:59:53.000Z</time>
      </trkpt>
      <trkpt lat="46.34426" lon="-0.82942">
        <ele>2.5999999046326</ele>
        <time>2015-01-19T08:59:59.000Z</time>
      </trkpt>
      <trkpt lat="46.34427" lon="-0.82938">
        <ele>2.5999999046326</ele>
        <time>2015-01-19T09:02:36.000Z</time>
      </trkpt>
      <trkpt lat="46.34427" lon="-0.82933">
        <ele>2.5999999046326</ele>
        <time>2015-01-19T09:02:50.000Z</time>
      </trkpt>
      <trkpt lat="46.34427" lon="-0.82926">
        <ele>2.5999999046326</ele>
        <time>2015-01-19T09:02:57.000Z</time>
      </trkpt>
      <trkpt lat="46.34426" lon="-0.82922">
        <ele>2.4000000953674</ele>
        <time>2015-01-19T09:03:04.000Z</time>
      </trkpt>
      <trkpt lat="46.34424" lon="-0.8292">
        <ele>2.4000000953674</ele>
        <time>2015-01-19T09:03:26.000Z</time>
      </trkpt>
      <trkpt lat="46.34423" lon="-0.82918">
        <ele>2.2000000476837</ele>
        <time>2015-01-19T09:03:33.000Z</time>
      </trkpt>
      <trkpt lat="46.34421" lon="-0.82914">
        <ele>2.2000000476837</ele>
        <time>2015-01-19T09:03:40.000Z</time>
      </trkpt>
      <trkpt lat="46.34414" lon="-0.82909">
        <ele>1.7999999523163</ele>
        <time>2015-01-19T09:03:47.000Z</time>
      </trkpt>
      <trkpt lat="46.34402" lon="-0.82902">
        <ele>1.3999999761581</ele>
        <time>2015-01-19T09:03:58.000Z</time>
      </trkpt>
      <trkpt lat="46.3439" lon="-0.82895">
        <ele>1</ele>
        <time>2015-01-19T09:04:08.000Z</time>
      </trkpt>
      <trkpt lat="46.3438" lon="-0.82889">
        <ele>1.2000000476837</ele>
        <time>2015-01-19T09:04:16.000Z</time>
      </trkpt>
      <trkpt lat="46.34367" lon="-0.82881">
        <ele>1.3999999761581</ele>
        <time>2015-01-19T09:04:26.000Z</time>
      </trkpt>
      <trkpt lat="46.34358" lon="-0.82877">
        <ele>1.6000000238419</ele>
        <time>2015-01-19T09:04:33.000Z</time>
      </trkpt>
      <trkpt lat="46.34349" lon="-0.82871">
        <ele>1.7999999523163</ele>
        <time>2015-01-19T09:04:40.000Z</time>
      </trkpt>
      <trkpt lat="46.34336" lon="-0.82863">
        <ele>2</ele>
        <time>2015-01-19T09:04:50.000Z</time>
      </trkpt>
      <trkpt lat="46.34324" lon="-0.82857">
        <ele>2</ele>
        <time>2015-01-19T09:04:59.000Z</time>
      </trkpt>
      <trkpt lat="46.34307" lon="-0.82849">
        <ele>2.2000000476837</ele>
        <time>2015-01-19T09:05:12.000Z</time>
      </trkpt>
      <trkpt lat="46.34294" lon="-0.82841">
        <ele>2.4000000953674</ele>
        <time>2015-01-19T09:05:21.000Z</time>
      </trkpt>
      <trkpt lat="46.34282" lon="-0.82833">
        <ele>2.7999999523163</ele>
        <time>2015-01-19T09:05:30.000Z</time>
      </trkpt>
      <trkpt lat="46.34272" lon="-0.82828">
        <ele>2.7999999523163</ele>
        <time>2015-01-19T09:05:37.000Z</time>
      </trkpt>
      <trkpt lat="46.34261" lon="-0.82822">
        <ele>2.7999999523163</ele>
        <time>2015-01-19T09:05:45.000Z</time>
      </trkpt>
      <trkpt lat="46.34248" lon="-0.82815">
        <ele>3</ele>
        <time>2015-01-19T09:05:55.000Z</time>
      </trkpt>
      <trkpt lat="46.34235" lon="-0.82807">
        <ele>3</ele>
        <time>2015-01-19T09:06:05.000Z</time>
      </trkpt>
      <trkpt lat="46.34215" lon="-0.82796">
        <ele>2.5999999046326</ele>
        <time>2015-01-19T09:06:18.000Z</time>
      </trkpt>
      <trkpt lat="46.34204" lon="-0.82789">
        <ele>2.2000000476837</ele>
        <time>2015-01-19T09:06:26.000Z</time>
      </trkpt>
      <trkpt lat="46.3419" lon="-0.82781">
        <ele>2</ele>
        <time>2015-01-19T09:06:36.000Z</time>
      </trkpt>
      <trkpt lat="46.34176" lon="-0.82774">
        <ele>1.6000000238419</ele>
        <time>2015-01-19T09:06:46.000Z</time>
      </trkpt>
      <trkpt lat="46.34174" lon="-0.82772">
        <ele>1.6000000238419</ele>
        <time>2015-01-19T09:06:47.000Z</time>
      </trkpt>
      <trkpt lat="46.3417" lon="-0.82769">
        <ele>1.7999999523163</ele>
        <time>2015-01-19T09:06:50.000Z</time>
      </trkpt>
      <trkpt lat="46.34157" lon="-0.82761">
        <ele>1.7999999523163</ele>
        <time>2015-01-19T09:07:00.000Z</time>
      </trkpt>
      <trkpt lat="46.34143" lon="-0.82753">
        <ele>2</ele>
        <time>2015-01-19T09:07:10.000Z</time>
      </trkpt>
      <trkpt lat="46.34132" lon="-0.82747">
        <ele>2.2000000476837</ele>
        <time>2015-01-19T09:07:18.000Z</time>
      </trkpt>
      <trkpt lat="46.3412" lon="-0.8274">
        <ele>2.4000000953674</ele>
        <time>2015-01-19T09:07:27.000Z</time>
      </trkpt>
      <trkpt lat="46.34107" lon="-0.82731">
        <ele>2.7999999523163</ele>
        <time>2015-01-19T09:07:36.000Z</time>
      </trkpt>
      <trkpt lat="46.34094" lon="-0.82724">
        <ele>3.2000000476837</ele>
        <time>2015-01-19T09:07:45.000Z</time>
      </trkpt>
      <trkpt lat="46.34083" lon="-0.8272">
        <ele>3.5999999046326</ele>
        <time>2015-01-19T09:07:53.000Z</time>
      </trkpt>
      <trkpt lat="46.3407" lon="-0.82712">
        <ele>3.7999999523163</ele>
        <time>2015-01-19T09:08:03.000Z</time>
      </trkpt>
      <trkpt lat="46.34056" lon="-0.82705">
        <ele>3.5999999046326</ele>
        <time>2015-01-19T09:08:13.000Z</time>
      </trkpt>
      <trkpt lat="46.34046" lon="-0.82699">
        <ele>3.2000000476837</ele>
        <time>2015-01-19T09:08:20.000Z</time>
      </trkpt>
      <trkpt lat="46.34033" lon="-0.82692">
        <ele>2.7999999523163</ele>
        <time>2015-01-19T09:08:30.000Z</time>
      </trkpt>
      <trkpt lat="46.34023" lon="-0.82686">
        <ele>2.5999999046326</ele>
        <time>2015-01-19T09:08:37.000Z</time>
      </trkpt>
      <trkpt lat="46.3401" lon="-0.8268">
        <ele>2.5999999046326</ele>
        <time>2015-01-19T09:08:46.000Z</time>
      </trkpt>
      <trkpt lat="46.33996" lon="-0.82671">
        <ele>2.5999999046326</ele>
        <time>2015-01-19T09:08:57.000Z</time>
      </trkpt>
      <trkpt lat="46.33985" lon="-0.82666">
        <ele>2.5999999046326</ele>
        <time>2015-01-19T09:09:05.000Z</time>
      </trkpt>
      <trkpt lat="46.33962" lon="-0.82655">
        <ele>2.7999999523163</ele>
        <time>2015-01-19T09:09:22.000Z</time>
      </trkpt>
      <trkpt lat="46.33951" lon="-0.82649">
        <ele>3.2000000476837</ele>
        <time>2015-01-19T09:09:30.000Z</time>
      </trkpt>
      <trkpt lat="46.33941" lon="-0.82644">
        <ele>3.4000000953674</ele>
        <time>2015-01-19T09:09:37.000Z</time>
      </trkpt>
      <trkpt lat="46.33932" lon="-0.82636">
        <ele>3.5999999046326</ele>
        <time>2015-01-19T09:09:44.000Z</time>
      </trkpt>
      <trkpt lat="46.33917" lon="-0.82628">
        <ele>3.5999999046326</ele>
        <time>2015-01-19T09:09:55.000Z</time>
      </trkpt>
      <trkpt lat="46.33907" lon="-0.82623">
        <ele>3.7999999523163</ele>
        <time>2015-01-19T09:10:02.000Z</time>
      </trkpt>
      <trkpt lat="46.33896" lon="-0.82617">
        <ele>3.7999999523163</ele>
        <time>2015-01-19T09:10:10.000Z</time>
      </trkpt>
      <trkpt lat="46.33885" lon="-0.82609">
        <ele>3.5999999046326</ele>
        <time>2015-01-19T09:10:18.000Z</time>
      </trkpt>
      <trkpt lat="46.33877" lon="-0.82604">
        <ele>3.5999999046326</ele>
        <time>2015-01-19T09:10:25.000Z</time>
      </trkpt>
      <trkpt lat="46.33867" lon="-0.82598">
        <ele>3.5999999046326</ele>
        <time>2015-01-19T09:10:33.000Z</time>
      </trkpt>
      <trkpt lat="46.33856" lon="-0.82592">
        <ele>3.4000000953674</ele>
        <time>2015-01-19T09:10:41.000Z</time>
      </trkpt>
      <trkpt lat="46.33846" lon="-0.82587">
        <ele>3.5999999046326</ele>
        <time>2015-01-19T09:10:48.000Z</time>
      </trkpt>
      <trkpt lat="46.33837" lon="-0.82581">
        <ele>3.7999999523163</ele>
        <time>2015-01-19T09:10:55.000Z</time>
      </trkpt>
      <trkpt lat="46.3381" lon="-0.82564">
        <ele>4</ele>
        <time>2015-01-19T09:11:14.000Z</time>
      </trkpt>
      <trkpt lat="46.33799" lon="-0.82558">
        <ele>3.7999999523163</ele>
        <time>2015-01-19T09:11:22.000Z</time>
      </trkpt>
      <trkpt lat="46.33785" lon="-0.8255">
        <ele>3.5999999046326</ele>
        <time>2015-01-19T09:11:32.000Z</time>
      </trkpt>
      <trkpt lat="46.33775" lon="-0.82544">
        <ele>3.4000000953674</ele>
        <time>2015-01-19T09:11:40.000Z</time>
      </trkpt>
      <trkpt lat="46.33765" lon="-0.82539">
        <ele>3.2000000476837</ele>
        <time>2015-01-19T09:11:48.000Z</time>
      </trkpt>
      <trkpt lat="46.33756" lon="-0.82533">
        <ele>3</ele>
        <time>2015-01-19T09:11:55.000Z</time>
      </trkpt>
      <trkpt lat="46.33742" lon="-0.82527">
        <ele>3</ele>
        <time>2015-01-19T09:12:05.000Z</time>
      </trkpt>
      <trkpt lat="46.33726" lon="-0.82524">
        <ele>3</ele>
        <time>2015-01-19T09:12:16.000Z</time>
      </trkpt>
      <trkpt lat="46.33712" lon="-0.82523">
        <ele>3</ele>
        <time>2015-01-19T09:12:25.000Z</time>
      </trkpt>
      <trkpt lat="46.33696" lon="-0.82522">
        <ele>3</ele>
        <time>2015-01-19T09:12:36.000Z</time>
      </trkpt>
      <trkpt lat="46.33686" lon="-0.82524">
        <ele>3</ele>
        <time>2015-01-19T09:12:44.000Z</time>
      </trkpt>
      <trkpt lat="46.33674" lon="-0.82528">
        <ele>3</ele>
        <time>2015-01-19T09:12:54.000Z</time>
      </trkpt>
      <trkpt lat="46.33661" lon="-0.82536">
        <ele>3</ele>
        <time>2015-01-19T09:13:06.000Z</time>
      </trkpt>
      <trkpt lat="46.33651" lon="-0.82544">
        <ele>3</ele>
        <time>2015-01-19T09:13:15.000Z</time>
      </trkpt>
      <trkpt lat="46.33639" lon="-0.82556">
        <ele>3.2000000476837</ele>
        <time>2015-01-19T09:13:26.000Z</time>
      </trkpt>
      <trkpt lat="46.33624" lon="-0.8257">
        <ele>3.5999999046326</ele>
        <time>2015-01-19T09:13:40.000Z</time>
      </trkpt>
      <trkpt lat="46.33617" lon="-0.82576">
        <ele>3.7999999523163</ele>
        <time>2015-01-19T09:13:46.000Z</time>
      </trkpt>
      <trkpt lat="46.33609" lon="-0.82581">
        <ele>4</ele>
        <time>2015-01-19T09:13:52.000Z</time>
      </trkpt>
      <trkpt lat="46.33608" lon="-0.82582">
        <ele>4</ele>
        <time>2015-01-19T09:13:53.000Z</time>
      </trkpt>
      <trkpt lat="46.33596" lon="-0.82592">
        <ele>4.4000000953674</ele>
        <time>2015-01-19T09:14:04.000Z</time>
      </trkpt>
      <trkpt lat="46.33593" lon="-0.82598">
        <ele>4.4000000953674</ele>
        <time>2015-01-19T09:14:10.000Z</time>
      </trkpt>
      <trkpt lat="46.33595" lon="-0.82601">
        <ele>4.4000000953674</ele>
        <time>2015-01-19T09:14:17.000Z</time>
      </trkpt>
      <trkpt lat="46.33597" lon="-0.82601">
        <ele>4.1999998092651</ele>
        <time>2015-01-19T09:14:27.000Z</time>
      </trkpt>
      <trkpt lat="46.33599" lon="-0.82602">
        <ele>4.1999998092651</ele>
        <time>2015-01-19T09:14:36.000Z</time>
      </trkpt>
      <trkpt lat="46.336" lon="-0.82602">
        <ele>4.1999998092651</ele>
        <time>2015-01-19T09:14:43.000Z</time>
      </trkpt>
      <trkpt lat="46.33602" lon="-0.82601">
        <ele>4</ele>
        <time>2015-01-19T09:14:49.000Z</time>
      </trkpt>
      <trkpt lat="46.33606" lon="-0.82599">
        <ele>4</ele>
        <time>2015-01-19T09:14:56.000Z</time>
      </trkpt>
      <trkpt lat="46.33614" lon="-0.82595">
        <ele>3.7999999523163</ele>
        <time>2015-01-19T09:15:06.000Z</time>
      </trkpt>
      <trkpt lat="46.33618" lon="-0.82592">
        <ele>3.7999999523163</ele>
        <time>2015-01-19T09:15:14.000Z</time>
      </trkpt>
      <trkpt lat="46.33623" lon="-0.82587">
        <ele>3.5999999046326</ele>
        <time>2015-01-19T09:15:22.000Z</time>
      </trkpt>
      <trkpt lat="46.33628" lon="-0.82584">
        <ele>3.5999999046326</ele>
        <time>2015-01-19T09:15:28.000Z</time>
      </trkpt>
      <trkpt lat="46.33633" lon="-0.82592">
        <ele>3.5999999046326</ele>
        <time>2015-01-19T09:15:36.000Z</time>
      </trkpt>
      <trkpt lat="46.33639" lon="-0.82603">
        <ele>3.5999999046326</ele>
        <time>2015-01-19T09:15:45.000Z</time>
      </trkpt>
      <trkpt lat="46.33644" lon="-0.82612">
        <ele>3.7999999523163</ele>
        <time>2015-01-19T09:15:53.000Z</time>
      </trkpt>
      <trkpt lat="46.3365" lon="-0.82622">
        <ele>3.7999999523163</ele>
        <time>2015-01-19T09:16:00.000Z</time>
      </trkpt>
      <trkpt lat="46.33657" lon="-0.82635">
        <ele>4</ele>
        <time>2015-01-19T09:16:09.000Z</time>
      </trkpt>
      <trkpt lat="46.33662" lon="-0.82645">
        <ele>4</ele>
        <time>2015-01-19T09:16:15.000Z</time>
      </trkpt>
      <trkpt lat="46.33673" lon="-0.82664">
        <ele>4</ele>
        <time>2015-01-19T09:16:27.000Z</time>
      </trkpt>
      <trkpt lat="46.33681" lon="-0.82676">
        <ele>4</ele>
        <time>2015-01-19T09:16:35.000Z</time>
      </trkpt>
      <trkpt lat="46.33692" lon="-0.82692">
        <ele>3.7999999523163</ele>
        <time>2015-01-19T09:16:46.000Z</time>
      </trkpt>
      <trkpt lat="46.33699" lon="-0.82704">
        <ele>3.5999999046326</ele>
        <time>2015-01-19T09:16:54.000Z</time>
      </trkpt>
      <trkpt lat="46.33704" lon="-0.82712">
        <ele>3.4000000953674</ele>
        <time>2015-01-19T09:17:00.000Z</time>
      </trkpt>
      <trkpt lat="46.33716" lon="-0.82727">
        <ele>3.2000000476837</ele>
        <time>2015-01-19T09:17:11.000Z</time>
      </trkpt>
      <trkpt lat="46.33728" lon="-0.8274">
        <ele>3.2000000476837</ele>
        <time>2015-01-19T09:17:21.000Z</time>
      </trkpt>
      <trkpt lat="46.33738" lon="-0.82751">
        <ele>3.4000000953674</ele>
        <time>2015-01-19T09:17:30.000Z</time>
      </trkpt>
      <trkpt lat="46.3375" lon="-0.82764">
        <ele>3.5999999046326</ele>
        <time>2015-01-19T09:17:41.000Z</time>
      </trkpt>
      <trkpt lat="46.33762" lon="-0.82776">
        <ele>3.5999999046326</ele>
        <time>2015-01-19T09:17:52.000Z</time>
      </trkpt>
      <trkpt lat="46.33774" lon="-0.82786">
        <ele>4</ele>
        <time>2015-01-19T09:18:03.000Z</time>
      </trkpt>
      <trkpt lat="46.33781" lon="-0.82792">
        <ele>4.1999998092651</ele>
        <time>2015-01-19T09:18:10.000Z</time>
      </trkpt>
      <trkpt lat="46.33788" lon="-0.82798">
        <ele>4.5999999046326</ele>
        <time>2015-01-19T09:18:17.000Z</time>
      </trkpt>
      <trkpt lat="46.33796" lon="-0.82805">
        <ele>4.8000001907349</ele>
        <time>2015-01-19T09:18:24.000Z</time>
      </trkpt>
      <trkpt lat="46.33806" lon="-0.82812">
        <ele>4.8000001907349</ele>
        <time>2015-01-19T09:18:32.000Z</time>
      </trkpt>
      <trkpt lat="46.33816" lon="-0.8282">
        <ele>4.8000001907349</ele>
        <time>2015-01-19T09:18:41.000Z</time>
      </trkpt>
      <trkpt lat="46.33828" lon="-0.8283">
        <ele>4.1999998092651</ele>
        <time>2015-01-19T09:18:52.000Z</time>
      </trkpt>
      <trkpt lat="46.33842" lon="-0.82838">
        <ele>3.5999999046326</ele>
        <time>2015-01-19T09:19:03.000Z</time>
      </trkpt>
      <trkpt lat="46.33856" lon="-0.82845">
        <ele>3</ele>
        <time>2015-01-19T09:19:13.000Z</time>
      </trkpt>
      <trkpt lat="46.33868" lon="-0.82851">
        <ele>2.7999999523163</ele>
        <time>2015-01-19T09:19:22.000Z</time>
      </trkpt>
      <trkpt lat="46.33879" lon="-0.82857">
        <ele>2.4000000953674</ele>
        <time>2015-01-19T09:19:30.000Z</time>
      </trkpt>
      <trkpt lat="46.33893" lon="-0.82865">
        <ele>2.2000000476837</ele>
        <time>2015-01-19T09:19:41.000Z</time>
      </trkpt>
      <trkpt lat="46.339" lon="-0.8287">
        <ele>2</ele>
        <time>2015-01-19T09:19:48.000Z</time>
      </trkpt>
      <trkpt lat="46.33908" lon="-0.82877">
        <ele>2</ele>
        <time>2015-01-19T09:19:55.000Z</time>
      </trkpt>
      <trkpt lat="46.33924" lon="-0.82889">
        <ele>1.6000000238419</ele>
        <time>2015-01-19T09:20:07.000Z</time>
      </trkpt>
      <trkpt lat="46.33937" lon="-0.82898">
        <ele>1.6000000238419</ele>
        <time>2015-01-19T09:20:17.000Z</time>
      </trkpt>
      <trkpt lat="46.33949" lon="-0.82906">
        <ele>1.3999999761581</ele>
        <time>2015-01-19T09:20:27.000Z</time>
      </trkpt>
      <trkpt lat="46.33961" lon="-0.82914">
        <ele>1.3999999761581</ele>
        <time>2015-01-19T09:20:36.000Z</time>
      </trkpt>
      <trkpt lat="46.33974" lon="-0.82924">
        <ele>1.3999999761581</ele>
        <time>2015-01-19T09:20:46.000Z</time>
      </trkpt>
      <trkpt lat="46.33988" lon="-0.82934">
        <ele>1.7999999523163</ele>
        <time>2015-01-19T09:20:57.000Z</time>
      </trkpt>
      <trkpt lat="46.34003" lon="-0.82944">
        <ele>2.2000000476837</ele>
        <time>2015-01-19T09:21:09.000Z</time>
      </trkpt>
      <trkpt lat="46.34016" lon="-0.82953">
        <ele>2.4000000953674</ele>
        <time>2015-01-19T09:21:20.000Z</time>
      </trkpt>
      <trkpt lat="46.34027" lon="-0.82961">
        <ele>2.5999999046326</ele>
        <time>2015-01-19T09:21:29.000Z</time>
      </trkpt>
      <trkpt lat="46.3404" lon="-0.82971">
        <ele>2.7999999523163</ele>
        <time>2015-01-19T09:21:40.000Z</time>
      </trkpt>
      <trkpt lat="46.34054" lon="-0.82983">
        <ele>3</ele>
        <time>2015-01-19T09:21:52.000Z</time>
      </trkpt>
      <trkpt lat="46.3407" lon="-0.82997">
        <ele>3.5999999046326</ele>
        <time>2015-01-19T09:22:05.000Z</time>
      </trkpt>
      <trkpt lat="46.34079" lon="-0.83007">
        <ele>3.5999999046326</ele>
        <time>2015-01-19T09:22:14.000Z</time>
      </trkpt>
      <trkpt lat="46.34091" lon="-0.83021">
        <ele>3.7999999523163</ele>
        <time>2015-01-19T09:22:25.000Z</time>
      </trkpt>
      <trkpt lat="46.34103" lon="-0.83036">
        <ele>4</ele>
        <time>2015-01-19T09:22:36.000Z</time>
      </trkpt>
      <trkpt lat="46.34113" lon="-0.83051">
        <ele>4.4000000953674</ele>
        <time>2015-01-19T09:22:46.000Z</time>
      </trkpt>
      <trkpt lat="46.34134" lon="-0.83082">
        <ele>4.4000000953674</ele>
        <time>2015-01-19T09:23:07.000Z</time>
      </trkpt>
      <trkpt lat="46.34145" lon="-0.83099">
        <ele>4.5999999046326</ele>
        <time>2015-01-19T09:23:18.000Z</time>
      </trkpt>
      <trkpt lat="46.34154" lon="-0.83113">
        <ele>4.5999999046326</ele>
        <time>2015-01-19T09:23:27.000Z</time>
      </trkpt>
      <trkpt lat="46.34162" lon="-0.8313">
        <ele>4.4000000953674</ele>
        <time>2015-01-19T09:23:37.000Z</time>
      </trkpt>
      <trkpt lat="46.3417" lon="-0.83154">
        <ele>3.7999999523163</ele>
        <time>2015-01-19T09:23:49.000Z</time>
      </trkpt>
      <trkpt lat="46.34176" lon="-0.83179">
        <ele>3</ele>
        <time>2015-01-19T09:24:01.000Z</time>
      </trkpt>
      <trkpt lat="46.34179" lon="-0.83196">
        <ele>2.5999999046326</ele>
        <time>2015-01-19T09:24:09.000Z</time>
      </trkpt>
      <trkpt lat="46.34182" lon="-0.83215">
        <ele>3</ele>
        <time>2015-01-19T09:24:18.000Z</time>
      </trkpt>
      <trkpt lat="46.34184" lon="-0.83237">
        <ele>2.5999999046326</ele>
        <time>2015-01-19T09:24:28.000Z</time>
      </trkpt>
      <trkpt lat="46.34186" lon="-0.83262">
        <ele>2</ele>
        <time>2015-01-19T09:24:39.000Z</time>
      </trkpt>
      <trkpt lat="46.34189" lon="-0.83285">
        <ele>2</ele>
        <time>2015-01-19T09:24:49.000Z</time>
      </trkpt>
      <trkpt lat="46.34191" lon="-0.83313">
        <ele>2.2000000476837</ele>
        <time>2015-01-19T09:25:01.000Z</time>
      </trkpt>
      <trkpt lat="46.34192" lon="-0.83341">
        <ele>2.4000000953674</ele>
        <time>2015-01-19T09:25:13.000Z</time>
      </trkpt>
      <trkpt lat="46.34191" lon="-0.83367">
        <ele>2.2000000476837</ele>
        <time>2015-01-19T09:25:25.000Z</time>
      </trkpt>
      <trkpt lat="46.3419" lon="-0.83394">
        <ele>2.2000000476837</ele>
        <time>2015-01-19T09:25:37.000Z</time>
      </trkpt>
      <trkpt lat="46.34186" lon="-0.8342">
        <ele>3.2000000476837</ele>
        <time>2015-01-19T09:25:49.000Z</time>
      </trkpt>
      <trkpt lat="46.34181" lon="-0.83447">
        <ele>3.7999999523163</ele>
        <time>2015-01-19T09:26:01.000Z</time>
      </trkpt>
      <trkpt lat="46.34175" lon="-0.83473">
        <ele>4.4000000953674</ele>
        <time>2015-01-19T09:26:13.000Z</time>
      </trkpt>
      <trkpt lat="46.3417" lon="-0.83498">
        <ele>4.1999998092651</ele>
        <time>2015-01-19T09:26:25.000Z</time>
      </trkpt>
      <trkpt lat="46.34165" lon="-0.83519">
        <ele>4</ele>
        <time>2015-01-19T09:26:35.000Z</time>
      </trkpt>
      <trkpt lat="46.34161" lon="-0.83537">
        <ele>3.7999999523163</ele>
        <time>2015-01-19T09:26:43.000Z</time>
      </trkpt>
      <trkpt lat="46.34155" lon="-0.83564">
        <ele>4</ele>
        <time>2015-01-19T09:26:55.000Z</time>
      </trkpt>
      <trkpt lat="46.34149" lon="-0.83589">
        <ele>4</ele>
        <time>2015-01-19T09:27:06.000Z</time>
      </trkpt>
      <trkpt lat="46.34143" lon="-0.83615">
        <ele>4</ele>
        <time>2015-01-19T09:27:18.000Z</time>
      </trkpt>
      <trkpt lat="46.34137" lon="-0.83641">
        <ele>4</ele>
        <time>2015-01-19T09:27:30.000Z</time>
      </trkpt>
      <trkpt lat="46.34132" lon="-0.83666">
        <ele>4.4000000953674</ele>
        <time>2015-01-19T09:27:42.000Z</time>
      </trkpt>
      <trkpt lat="46.34128" lon="-0.83691">
        <ele>4.4000000953674</ele>
        <time>2015-01-19T09:27:54.000Z</time>
      </trkpt>
      <trkpt lat="46.34123" lon="-0.8371">
        <ele>4.5999999046326</ele>
        <time>2015-01-19T09:28:03.000Z</time>
      </trkpt>
      <trkpt lat="46.34117" lon="-0.83734">
        <ele>4.1999998092651</ele>
        <time>2015-01-19T09:28:15.000Z</time>
      </trkpt>
      <trkpt lat="46.34113" lon="-0.83753">
        <ele>3.7999999523163</ele>
        <time>2015-01-19T09:28:24.000Z</time>
      </trkpt>
      <trkpt lat="46.34108" lon="-0.83773">
        <ele>3.4000000953674</ele>
        <time>2015-01-19T09:28:34.000Z</time>
      </trkpt>
      <trkpt lat="46.34104" lon="-0.83792">
        <ele>3.2000000476837</ele>
        <time>2015-01-19T09:28:44.000Z</time>
      </trkpt>
      <trkpt lat="46.34099" lon="-0.83816">
        <ele>3</ele>
        <time>2015-01-19T09:28:56.000Z</time>
      </trkpt>
      <trkpt lat="46.34094" lon="-0.83843">
        <ele>3</ele>
        <time>2015-01-19T09:29:09.000Z</time>
      </trkpt>
      <trkpt lat="46.34087" lon="-0.83869">
        <ele>3</ele>
        <time>2015-01-19T09:29:22.000Z</time>
      </trkpt>
      <trkpt lat="46.34081" lon="-0.8389">
        <ele>2.7999999523163</ele>
        <time>2015-01-19T09:29:33.000Z</time>
      </trkpt>
      <trkpt lat="46.34073" lon="-0.8391">
        <ele>2.7999999523163</ele>
        <time>2015-01-19T09:29:44.000Z</time>
      </trkpt>
      <trkpt lat="46.34065" lon="-0.83928">
        <ele>3</ele>
        <time>2015-01-19T09:29:54.000Z</time>
      </trkpt>
      <trkpt lat="46.34055" lon="-0.8395">
        <ele>2.7999999523163</ele>
        <time>2015-01-19T09:30:07.000Z</time>
      </trkpt>
      <trkpt lat="46.34046" lon="-0.83966">
        <ele>2.7999999523163</ele>
        <time>2015-01-19T09:30:17.000Z</time>
      </trkpt>
      <trkpt lat="46.34037" lon="-0.83984">
        <ele>2.5999999046326</ele>
        <time>2015-01-19T09:30:28.000Z</time>
      </trkpt>
      <trkpt lat="46.34028" lon="-0.84">
        <ele>2.5999999046326</ele>
        <time>2015-01-19T09:30:37.000Z</time>
      </trkpt>
      <trkpt lat="46.34016" lon="-0.8402">
        <ele>2.4000000953674</ele>
        <time>2015-01-19T09:30:48.000Z</time>
      </trkpt>
      <trkpt lat="46.34003" lon="-0.84041">
        <ele>2.2000000476837</ele>
        <time>2015-01-19T09:31:00.000Z</time>
      </trkpt>
      <trkpt lat="46.3399" lon="-0.84059">
        <ele>2</ele>
        <time>2015-01-19T09:31:11.000Z</time>
      </trkpt>
      <trkpt lat="46.33976" lon="-0.84075">
        <ele>2.2000000476837</ele>
        <time>2015-01-19T09:31:22.000Z</time>
      </trkpt>
      <trkpt lat="46.33965" lon="-0.84089">
        <ele>2.2000000476837</ele>
        <time>2015-01-19T09:31:31.000Z</time>
      </trkpt>
      <trkpt lat="46.33954" lon="-0.84101">
        <ele>2.2000000476837</ele>
        <time>2015-01-19T09:31:40.000Z</time>
      </trkpt>
      <trkpt lat="46.33943" lon="-0.84112">
        <ele>2.2000000476837</ele>
        <time>2015-01-19T09:31:48.000Z</time>
      </trkpt>
      <trkpt lat="46.33928" lon="-0.84128">
        <ele>2.2000000476837</ele>
        <time>2015-01-19T09:31:59.000Z</time>
      </trkpt>
      <trkpt lat="46.33913" lon="-0.84143">
        <ele>2.2000000476837</ele>
        <time>2015-01-19T09:32:10.000Z</time>
      </trkpt>
      <trkpt lat="46.33898" lon="-0.84158">
        <ele>2.2000000476837</ele>
        <time>2015-01-19T09:32:21.000Z</time>
      </trkpt>
      <trkpt lat="46.33883" lon="-0.84173">
        <ele>2.7999999523163</ele>
        <time>2015-01-19T09:32:32.000Z</time>
      </trkpt>
      <trkpt lat="46.33868" lon="-0.84188">
        <ele>3.2000000476837</ele>
        <time>2015-01-19T09:32:43.000Z</time>
      </trkpt>
      <trkpt lat="46.33857" lon="-0.84199">
        <ele>3.5999999046326</ele>
        <time>2015-01-19T09:32:51.000Z</time>
      </trkpt>
      <trkpt lat="46.33842" lon="-0.84215">
        <ele>4.1999998092651</ele>
        <time>2015-01-19T09:33:02.000Z</time>
      </trkpt>
      <trkpt lat="46.33827" lon="-0.84229">
        <ele>4.8000001907349</ele>
        <time>2015-01-19T09:33:12.000Z</time>
      </trkpt>
      <trkpt lat="46.33811" lon="-0.84246">
        <ele>5.1999998092651</ele>
        <time>2015-01-19T09:33:23.000Z</time>
      </trkpt>
      <trkpt lat="46.33795" lon="-0.84263">
        <ele>5.1999998092651</ele>
        <time>2015-01-19T09:33:34.000Z</time>
      </trkpt>
      <trkpt lat="46.33781" lon="-0.84281">
        <ele>5.4000000953674</ele>
        <time>2015-01-19T09:33:45.000Z</time>
      </trkpt>
      <trkpt lat="46.3377" lon="-0.84295">
        <ele>5.4000000953674</ele>
        <time>2015-01-19T09:33:54.000Z</time>
      </trkpt>
      <trkpt lat="46.33759" lon="-0.8431">
        <ele>5.4000000953674</ele>
        <time>2015-01-19T09:34:03.000Z</time>
      </trkpt>
      <trkpt lat="46.33745" lon="-0.84329">
        <ele>5.4000000953674</ele>
        <time>2015-01-19T09:34:15.000Z</time>
      </trkpt>
      <trkpt lat="46.33733" lon="-0.84345">
        <ele>5.4000000953674</ele>
        <time>2015-01-19T09:34:25.000Z</time>
      </trkpt>
      <trkpt lat="46.33721" lon="-0.8436">
        <ele>5.4000000953674</ele>
        <time>2015-01-19T09:34:35.000Z</time>
      </trkpt>
      <trkpt lat="46.3371" lon="-0.84373">
        <ele>5.1999998092651</ele>
        <time>2015-01-19T09:34:44.000Z</time>
      </trkpt>
      <trkpt lat="46.33699" lon="-0.84384">
        <ele>5.1999998092651</ele>
        <time>2015-01-19T09:34:52.000Z</time>
      </trkpt>
      <trkpt lat="46.33678" lon="-0.84406">
        <ele>5</ele>
        <time>2015-01-19T09:35:08.000Z</time>
      </trkpt>
      <trkpt lat="46.33666" lon="-0.84419">
        <ele>4.8000001907349</ele>
        <time>2015-01-19T09:35:17.000Z</time>
      </trkpt>
      <trkpt lat="46.33655" lon="-0.8443">
        <ele>4.5999999046326</ele>
        <time>2015-01-19T09:35:25.000Z</time>
      </trkpt>
      <trkpt lat="46.33644" lon="-0.84441">
        <ele>4.5999999046326</ele>
        <time>2015-01-19T09:35:33.000Z</time>
      </trkpt>
      <trkpt lat="46.33627" lon="-0.84457">
        <ele>4.5999999046326</ele>
        <time>2015-01-19T09:35:44.000Z</time>
      </trkpt>
      <trkpt lat="46.33615" lon="-0.8447">
        <ele>4.5999999046326</ele>
        <time>2015-01-19T09:35:53.000Z</time>
      </trkpt>
      <trkpt lat="46.33599" lon="-0.84485">
        <ele>4.4000000953674</ele>
        <time>2015-01-19T09:36:04.000Z</time>
      </trkpt>
      <trkpt lat="46.33586" lon="-0.84502">
        <ele>4.1999998092651</ele>
        <time>2015-01-19T09:36:14.000Z</time>
      </trkpt>
      <trkpt lat="46.33572" lon="-0.8452">
        <ele>4</ele>
        <time>2015-01-19T09:36:25.000Z</time>
      </trkpt>
      <trkpt lat="46.33559" lon="-0.84539">
        <ele>4</ele>
        <time>2015-01-19T09:36:36.000Z</time>
      </trkpt>
      <trkpt lat="46.33544" lon="-0.84558">
        <ele>4</ele>
        <time>2015-01-19T09:36:47.000Z</time>
      </trkpt>
      <trkpt lat="46.33529" lon="-0.84575">
        <ele>3.2000000476837</ele>
        <time>2015-01-19T09:36:58.000Z</time>
      </trkpt>
      <trkpt lat="46.33516" lon="-0.8459">
        <ele>2.7999999523163</ele>
        <time>2015-01-19T09:37:08.000Z</time>
      </trkpt>
      <trkpt lat="46.335" lon="-0.84605">
        <ele>2.2000000476837</ele>
        <time>2015-01-19T09:37:19.000Z</time>
      </trkpt>
      <trkpt lat="46.33486" lon="-0.84619">
        <ele>1.7999999523163</ele>
        <time>2015-01-19T09:37:29.000Z</time>
      </trkpt>
      <trkpt lat="46.33472" lon="-0.84632">
        <ele>1.3999999761581</ele>
        <time>2015-01-19T09:37:39.000Z</time>
      </trkpt>
      <trkpt lat="46.3346" lon="-0.84644">
        <ele>1.3999999761581</ele>
        <time>2015-01-19T09:37:48.000Z</time>
      </trkpt>
      <trkpt lat="46.33445" lon="-0.84656">
        <ele>1.3999999761581</ele>
        <time>2015-01-19T09:37:58.000Z</time>
      </trkpt>
      <trkpt lat="46.33433" lon="-0.84667">
        <ele>1.3999999761581</ele>
        <time>2015-01-19T09:38:06.000Z</time>
      </trkpt>
      <trkpt lat="46.33421" lon="-0.84677">
        <ele>1.6000000238419</ele>
        <time>2015-01-19T09:38:14.000Z</time>
      </trkpt>
      <trkpt lat="46.33411" lon="-0.84687">
        <ele>1.6000000238419</ele>
        <time>2015-01-19T09:38:21.000Z</time>
      </trkpt>
      <trkpt lat="46.334" lon="-0.84697">
        <ele>1.6000000238419</ele>
        <time>2015-01-19T09:38:28.000Z</time>
      </trkpt>
      <trkpt lat="46.33393" lon="-0.84703">
        <ele>1.6000000238419</ele>
        <time>2015-01-19T09:38:33.000Z</time>
      </trkpt>
      <trkpt lat="46.33377" lon="-0.84716">
        <ele>1.3999999761581</ele>
        <time>2015-01-19T09:38:43.000Z</time>
      </trkpt>
      <trkpt lat="46.33364" lon="-0.84726">
        <ele>1.3999999761581</ele>
        <time>2015-01-19T09:38:51.000Z</time>
      </trkpt>
      <trkpt lat="46.33353" lon="-0.84735">
        <ele>1.3999999761581</ele>
        <time>2015-01-19T09:38:59.000Z</time>
      </trkpt>
      <trkpt lat="46.33341" lon="-0.84745">
        <ele>1.3999999761581</ele>
        <time>2015-01-19T09:39:06.000Z</time>
      </trkpt>
      <trkpt lat="46.33328" lon="-0.84755">
        <ele>1.3999999761581</ele>
        <time>2015-01-19T09:39:15.000Z</time>
      </trkpt>
      <trkpt lat="46.3332" lon="-0.84763">
        <ele>1.3999999761581</ele>
        <time>2015-01-19T09:39:21.000Z</time>
      </trkpt>
      <trkpt lat="46.33312" lon="-0.84769">
        <ele>1.3999999761581</ele>
        <time>2015-01-19T09:39:27.000Z</time>
      </trkpt>
      <trkpt lat="46.33301" lon="-0.8478">
        <ele>1.3999999761581</ele>
        <time>2015-01-19T09:39:34.000Z</time>
      </trkpt>
      <trkpt lat="46.33287" lon="-0.84791">
        <ele>1.6000000238419</ele>
        <time>2015-01-19T09:39:43.000Z</time>
      </trkpt>
      <trkpt lat="46.33269" lon="-0.84803">
        <ele>1.6000000238419</ele>
        <time>2015-01-19T09:39:54.000Z</time>
      </trkpt>
      <trkpt lat="46.33252" lon="-0.84813">
        <ele>2</ele>
        <time>2015-01-19T09:40:04.000Z</time>
      </trkpt>
      <trkpt lat="46.33236" lon="-0.84822">
        <ele>2.4000000953674</ele>
        <time>2015-01-19T09:40:14.000Z</time>
      </trkpt>
      <trkpt lat="46.33221" lon="-0.84829">
        <ele>2.4000000953674</ele>
        <time>2015-01-19T09:40:23.000Z</time>
      </trkpt>
      <trkpt lat="46.33205" lon="-0.84834">
        <ele>2</ele>
        <time>2015-01-19T09:40:32.000Z</time>
      </trkpt>
      <trkpt lat="46.33189" lon="-0.84838">
        <ele>2.2000000476837</ele>
        <time>2015-01-19T09:40:41.000Z</time>
      </trkpt>
      <trkpt lat="46.33177" lon="-0.8484">
        <ele>2.2000000476837</ele>
        <time>2015-01-19T09:40:48.000Z</time>
      </trkpt>
      <trkpt lat="46.33166" lon="-0.84842">
        <ele>2.4000000953674</ele>
        <time>2015-01-19T09:40:55.000Z</time>
      </trkpt>
      <trkpt lat="46.33157" lon="-0.84841">
        <ele>2.4000000953674</ele>
        <time>2015-01-19T09:41:01.000Z</time>
      </trkpt>
      <trkpt lat="46.33143" lon="-0.84841">
        <ele>2.5999999046326</ele>
        <time>2015-01-19T09:41:10.000Z</time>
      </trkpt>
      <trkpt lat="46.33129" lon="-0.84841">
        <ele>2.5999999046326</ele>
        <time>2015-01-19T09:41:18.000Z</time>
      </trkpt>
      <trkpt lat="46.33116" lon="-0.84841">
        <ele>2.5999999046326</ele>
        <time>2015-01-19T09:41:26.000Z</time>
      </trkpt>
      <trkpt lat="46.33102" lon="-0.84842">
        <ele>2.7999999523163</ele>
        <time>2015-01-19T09:41:34.000Z</time>
      </trkpt>
      <trkpt lat="46.33091" lon="-0.84844">
        <ele>3</ele>
        <time>2015-01-19T09:41:41.000Z</time>
      </trkpt>
      <trkpt lat="46.33077" lon="-0.84846">
        <ele>3.2000000476837</ele>
        <time>2015-01-19T09:41:49.000Z</time>
      </trkpt>
      <trkpt lat="46.33065" lon="-0.84847">
        <ele>3.4000000953674</ele>
        <time>2015-01-19T09:41:56.000Z</time>
      </trkpt>
      <trkpt lat="46.33051" lon="-0.84847">
        <ele>3.4000000953674</ele>
        <time>2015-01-19T09:42:04.000Z</time>
      </trkpt>
      <trkpt lat="46.33038" lon="-0.84846">
        <ele>3.2000000476837</ele>
        <time>2015-01-19T09:42:11.000Z</time>
      </trkpt>
      <trkpt lat="46.33024" lon="-0.84843">
        <ele>3.2000000476837</ele>
        <time>2015-01-19T09:42:19.000Z</time>
      </trkpt>
      <trkpt lat="46.3301" lon="-0.84838">
        <ele>3.2000000476837</ele>
        <time>2015-01-19T09:42:27.000Z</time>
      </trkpt>
      <trkpt lat="46.32998" lon="-0.84834">
        <ele>3.2000000476837</ele>
        <time>2015-01-19T09:42:34.000Z</time>
      </trkpt>
      <trkpt lat="46.32989" lon="-0.84828">
        <ele>3.2000000476837</ele>
        <time>2015-01-19T09:42:39.000Z</time>
      </trkpt>
      <trkpt lat="46.32972" lon="-0.84819">
        <ele>3.5999999046326</ele>
        <time>2015-01-19T09:42:48.000Z</time>
      </trkpt>
      <trkpt lat="46.32954" lon="-0.84808">
        <ele>3.5999999046326</ele>
        <time>2015-01-19T09:42:58.000Z</time>
      </trkpt>
      <trkpt lat="46.32938" lon="-0.84797">
        <ele>3.7999999523163</ele>
        <time>2015-01-19T09:43:08.000Z</time>
      </trkpt>
      <trkpt lat="46.32928" lon="-0.84787">
        <ele>3.7999999523163</ele>
        <time>2015-01-19T09:43:15.000Z</time>
      </trkpt>
      <trkpt lat="46.32918" lon="-0.84775">
        <ele>4.1999998092651</ele>
        <time>2015-01-19T09:43:23.000Z</time>
      </trkpt>
      <trkpt lat="46.32911" lon="-0.84766">
        <ele>4.4000000953674</ele>
        <time>2015-01-19T09:43:29.000Z</time>
      </trkpt>
      <trkpt lat="46.32902" lon="-0.84753">
        <ele>5</ele>
        <time>2015-01-19T09:43:37.000Z</time>
      </trkpt>
      <trkpt lat="46.32893" lon="-0.84743">
        <ele>5.1999998092651</ele>
        <time>2015-01-19T09:43:43.000Z</time>
      </trkpt>
      <trkpt lat="46.32884" lon="-0.8473">
        <ele>5.4000000953674</ele>
        <time>2015-01-19T09:43:50.000Z</time>
      </trkpt>
      <trkpt lat="46.32874" lon="-0.84716">
        <ele>4.8000001907349</ele>
        <time>2015-01-19T09:43:58.000Z</time>
      </trkpt>
      <trkpt lat="46.32865" lon="-0.84701">
        <ele>4.4000000953674</ele>
        <time>2015-01-19T09:44:05.000Z</time>
      </trkpt>
      <trkpt lat="46.32859" lon="-0.84692">
        <ele>4.1999998092651</ele>
        <time>2015-01-19T09:44:10.000Z</time>
      </trkpt>
      <trkpt lat="46.32848" lon="-0.84678">
        <ele>4</ele>
        <time>2015-01-19T09:44:18.000Z</time>
      </trkpt>
      <trkpt lat="46.32841" lon="-0.84668">
        <ele>4.1999998092651</ele>
        <time>2015-01-19T09:44:23.000Z</time>
      </trkpt>
      <trkpt lat="46.32832" lon="-0.84655">
        <ele>4.5999999046326</ele>
        <time>2015-01-19T09:44:30.000Z</time>
      </trkpt>
      <trkpt lat="46.32822" lon="-0.84638">
        <ele>5</ele>
        <time>2015-01-19T09:44:38.000Z</time>
      </trkpt>
      <trkpt lat="46.32814" lon="-0.84625">
        <ele>5.4000000953674</ele>
        <time>2015-01-19T09:44:45.000Z</time>
      </trkpt>
      <trkpt lat="46.32807" lon="-0.84614">
        <ele>5.5999999046326</ele>
        <time>2015-01-19T09:44:51.000Z</time>
      </trkpt>
      <trkpt lat="46.32799" lon="-0.84601">
        <ele>6</ele>
        <time>2015-01-19T09:44:57.000Z</time>
      </trkpt>
      <trkpt lat="46.32792" lon="-0.84591">
        <ele>6.1999998092651</ele>
        <time>2015-01-19T09:45:02.000Z</time>
      </trkpt>
      <trkpt lat="46.32787" lon="-0.84581">
        <ele>6.4000000953674</ele>
        <time>2015-01-19T09:45:07.000Z</time>
      </trkpt>
      <trkpt lat="46.32776" lon="-0.84566">
        <ele>6.1999998092651</ele>
        <time>2015-01-19T09:45:14.000Z</time>
      </trkpt>
      <trkpt lat="46.32769" lon="-0.84556">
        <ele>6</ele>
        <time>2015-01-19T09:45:19.000Z</time>
      </trkpt>
      <trkpt lat="46.32767" lon="-0.84554">
        <ele>5.8000001907349</ele>
        <time>2015-01-19T09:45:20.000Z</time>
      </trkpt>
      <trkpt lat="46.32762" lon="-0.84545">
        <ele>5.4000000953674</ele>
        <time>2015-01-19T09:45:24.000Z</time>
      </trkpt>
      <trkpt lat="46.32753" lon="-0.8453">
        <ele>5</ele>
        <time>2015-01-19T09:45:31.000Z</time>
      </trkpt>
      <trkpt lat="46.32744" lon="-0.84519">
        <ele>5.1999998092651</ele>
        <time>2015-01-19T09:45:37.000Z</time>
      </trkpt>
      <trkpt lat="46.32734" lon="-0.84505">
        <ele>5.5999999046326</ele>
        <time>2015-01-19T09:45:44.000Z</time>
      </trkpt>
      <trkpt lat="46.32725" lon="-0.84493">
        <ele>5.8000001907349</ele>
        <time>2015-01-19T09:45:50.000Z</time>
      </trkpt>
      <trkpt lat="46.32718" lon="-0.84488">
        <ele>6</ele>
        <time>2015-01-19T09:45:54.000Z</time>
      </trkpt>
      <trkpt lat="46.32707" lon="-0.8448">
        <ele>6.1999998092651</ele>
        <time>2015-01-19T09:46:00.000Z</time>
      </trkpt>
      <trkpt lat="46.32705" lon="-0.84479">
        <ele>6.1999998092651</ele>
        <time>2015-01-19T09:46:01.000Z</time>
      </trkpt>
      <trkpt lat="46.32691" lon="-0.84476">
        <ele>6.4000000953674</ele>
        <time>2015-01-19T09:46:08.000Z</time>
      </trkpt>
      <trkpt lat="46.32674" lon="-0.84472">
        <ele>6.5999999046326</ele>
        <time>2015-01-19T09:46:16.000Z</time>
      </trkpt>
      <trkpt lat="46.3266" lon="-0.8447">
        <ele>6.8000001907349</ele>
        <time>2015-01-19T09:46:23.000Z</time>
      </trkpt>
      <trkpt lat="46.32647" lon="-0.84466">
        <ele>7</ele>
        <time>2015-01-19T09:46:30.000Z</time>
      </trkpt>
      <trkpt lat="46.32628" lon="-0.84463">
        <ele>6.4000000953674</ele>
        <time>2015-01-19T09:46:39.000Z</time>
      </trkpt>
      <trkpt lat="46.32608" lon="-0.84459">
        <ele>5.8000001907349</ele>
        <time>2015-01-19T09:46:48.000Z</time>
      </trkpt>
      <trkpt lat="46.32588" lon="-0.84456">
        <ele>5</ele>
        <time>2015-01-19T09:46:58.000Z</time>
      </trkpt>
      <trkpt lat="46.32572" lon="-0.84452">
        <ele>4.5999999046326</ele>
        <time>2015-01-19T09:47:06.000Z</time>
      </trkpt>
      <trkpt lat="46.32559" lon="-0.84449">
        <ele>4.4000000953674</ele>
        <time>2015-01-19T09:47:13.000Z</time>
      </trkpt>
      <trkpt lat="46.32542" lon="-0.8445">
        <ele>4.1999998092651</ele>
        <time>2015-01-19T09:47:21.000Z</time>
      </trkpt>
      <trkpt lat="46.32525" lon="-0.84453">
        <ele>4</ele>
        <time>2015-01-19T09:47:29.000Z</time>
      </trkpt>
      <trkpt lat="46.32508" lon="-0.84458">
        <ele>3.5999999046326</ele>
        <time>2015-01-19T09:47:37.000Z</time>
      </trkpt>
      <trkpt lat="46.32491" lon="-0.84464">
        <ele>3.4000000953674</ele>
        <time>2015-01-19T09:47:45.000Z</time>
      </trkpt>
      <trkpt lat="46.32473" lon="-0.84471">
        <ele>3</ele>
        <time>2015-01-19T09:47:54.000Z</time>
      </trkpt>
      <trkpt lat="46.32456" lon="-0.84478">
        <ele>3</ele>
        <time>2015-01-19T09:48:03.000Z</time>
      </trkpt>
      <trkpt lat="46.32441" lon="-0.84485">
        <ele>2.7999999523163</ele>
        <time>2015-01-19T09:48:11.000Z</time>
      </trkpt>
      <trkpt lat="46.32425" lon="-0.84492">
        <ele>2.7999999523163</ele>
        <time>2015-01-19T09:48:20.000Z</time>
      </trkpt>
      <trkpt lat="46.32413" lon="-0.84498">
        <ele>2.5999999046326</ele>
        <time>2015-01-19T09:48:27.000Z</time>
      </trkpt>
      <trkpt lat="46.32397" lon="-0.84506">
        <ele>2.5999999046326</ele>
        <time>2015-01-19T09:48:36.000Z</time>
      </trkpt>
      <trkpt lat="46.32382" lon="-0.84512">
        <ele>2.7999999523163</ele>
        <time>2015-01-19T09:48:44.000Z</time>
      </trkpt>
      <trkpt lat="46.32363" lon="-0.84521">
        <ele>2.7999999523163</ele>
        <time>2015-01-19T09:48:54.000Z</time>
      </trkpt>
      <trkpt lat="46.32348" lon="-0.8453">
        <ele>2.7999999523163</ele>
        <time>2015-01-19T09:49:02.000Z</time>
      </trkpt>
      <trkpt lat="46.32334" lon="-0.84538">
        <ele>3</ele>
        <time>2015-01-19T09:49:10.000Z</time>
      </trkpt>
      <trkpt lat="46.32325" lon="-0.84544">
        <ele>3</ele>
        <time>2015-01-19T09:49:16.000Z</time>
      </trkpt>
      <trkpt lat="46.32316" lon="-0.84551">
        <ele>3</ele>
        <time>2015-01-19T09:49:22.000Z</time>
      </trkpt>
      <trkpt lat="46.32306" lon="-0.8456">
        <ele>3</ele>
        <time>2015-01-19T09:49:29.000Z</time>
      </trkpt>
      <trkpt lat="46.32299" lon="-0.84566">
        <ele>3</ele>
        <time>2015-01-19T09:49:34.000Z</time>
      </trkpt>
      <trkpt lat="46.32292" lon="-0.84573">
        <ele>3</ele>
        <time>2015-01-19T09:49:39.000Z</time>
      </trkpt>
      <trkpt lat="46.32284" lon="-0.84582">
        <ele>3</ele>
        <time>2015-01-19T09:49:44.000Z</time>
      </trkpt>
      <trkpt lat="46.32273" lon="-0.84593">
        <ele>3</ele>
        <time>2015-01-19T09:49:51.000Z</time>
      </trkpt>
      <trkpt lat="46.32257" lon="-0.84609">
        <ele>3</ele>
        <time>2015-01-19T09:50:00.000Z</time>
      </trkpt>
      <trkpt lat="46.32243" lon="-0.84624">
        <ele>3</ele>
        <time>2015-01-19T09:50:09.000Z</time>
      </trkpt>
      <trkpt lat="46.3223" lon="-0.84637">
        <ele>3</ele>
        <time>2015-01-19T09:50:17.000Z</time>
      </trkpt>
      <trkpt lat="46.32214" lon="-0.8465">
        <ele>3.4000000953674</ele>
        <time>2015-01-19T09:50:26.000Z</time>
      </trkpt>
      <trkpt lat="46.32199" lon="-0.84662">
        <ele>3.5999999046326</ele>
        <time>2015-01-19T09:50:35.000Z</time>
      </trkpt>
      <trkpt lat="46.32182" lon="-0.84674">
        <ele>4</ele>
        <time>2015-01-19T09:50:45.000Z</time>
      </trkpt>
      <trkpt lat="46.32171" lon="-0.8468">
        <ele>4.1999998092651</ele>
        <time>2015-01-19T09:50:51.000Z</time>
      </trkpt>
      <trkpt lat="46.32156" lon="-0.8469">
        <ele>4.4000000953674</ele>
        <time>2015-01-19T09:51:00.000Z</time>
      </trkpt>
      <trkpt lat="46.32141" lon="-0.847">
        <ele>4.5999999046326</ele>
        <time>2015-01-19T09:51:09.000Z</time>
      </trkpt>
      <trkpt lat="46.32127" lon="-0.84709">
        <ele>4.5999999046326</ele>
        <time>2015-01-19T09:51:17.000Z</time>
      </trkpt>
      <trkpt lat="46.32118" lon="-0.84713">
        <ele>4.5999999046326</ele>
        <time>2015-01-19T09:51:22.000Z</time>
      </trkpt>
      <trkpt lat="46.32107" lon="-0.84718">
        <ele>4.4000000953674</ele>
        <time>2015-01-19T09:51:28.000Z</time>
      </trkpt>
      <trkpt lat="46.32097" lon="-0.84724">
        <ele>4.4000000953674</ele>
        <time>2015-01-19T09:51:34.000Z</time>
      </trkpt>
      <trkpt lat="46.32083" lon="-0.84731">
        <ele>4.1999998092651</ele>
        <time>2015-01-19T09:51:42.000Z</time>
      </trkpt>
      <trkpt lat="46.32069" lon="-0.84736">
        <ele>4</ele>
        <time>2015-01-19T09:51:49.000Z</time>
      </trkpt>
      <trkpt lat="46.32052" lon="-0.84743">
        <ele>4</ele>
        <time>2015-01-19T09:51:58.000Z</time>
      </trkpt>
      <trkpt lat="46.32034" lon="-0.84752">
        <ele>4</ele>
        <time>2015-01-19T09:52:07.000Z</time>
      </trkpt>
      <trkpt lat="46.32008" lon="-0.84767">
        <ele>3.7999999523163</ele>
        <time>2015-01-19T09:52:21.000Z</time>
      </trkpt>
      <trkpt lat="46.31992" lon="-0.84775">
        <ele>3.5999999046326</ele>
        <time>2015-01-19T09:52:29.000Z</time>
      </trkpt>
      <trkpt lat="46.31974" lon="-0.84785">
        <ele>3.4000000953674</ele>
        <time>2015-01-19T09:52:38.000Z</time>
      </trkpt>
      <trkpt lat="46.31959" lon="-0.84793">
        <ele>3.4000000953674</ele>
        <time>2015-01-19T09:52:46.000Z</time>
      </trkpt>
      <trkpt lat="46.31942" lon="-0.84803">
        <ele>3.4000000953674</ele>
        <time>2015-01-19T09:52:55.000Z</time>
      </trkpt>
      <trkpt lat="46.31928" lon="-0.84811">
        <ele>3.2000000476837</ele>
        <time>2015-01-19T09:53:03.000Z</time>
      </trkpt>
      <trkpt lat="46.31914" lon="-0.84822">
        <ele>3</ele>
        <time>2015-01-19T09:53:11.000Z</time>
      </trkpt>
      <trkpt lat="46.31902" lon="-0.84831">
        <ele>2.7999999523163</ele>
        <time>2015-01-19T09:53:18.000Z</time>
      </trkpt>
      <trkpt lat="46.31888" lon="-0.84844">
        <ele>2.5999999046326</ele>
        <time>2015-01-19T09:53:27.000Z</time>
      </trkpt>
      <trkpt lat="46.31877" lon="-0.84854">
        <ele>2.4000000953674</ele>
        <time>2015-01-19T09:53:34.000Z</time>
      </trkpt>
      <trkpt lat="46.31866" lon="-0.84863">
        <ele>2.4000000953674</ele>
        <time>2015-01-19T09:53:41.000Z</time>
      </trkpt>
      <trkpt lat="46.31852" lon="-0.84875">
        <ele>2.2000000476837</ele>
        <time>2015-01-19T09:53:49.000Z</time>
      </trkpt>
      <trkpt lat="46.31839" lon="-0.84886">
        <ele>2</ele>
        <time>2015-01-19T09:53:57.000Z</time>
      </trkpt>
      <trkpt lat="46.31826" lon="-0.84899">
        <ele>2.2000000476837</ele>
        <time>2015-01-19T09:54:05.000Z</time>
      </trkpt>
      <trkpt lat="46.3181" lon="-0.84912">
        <ele>2.4000000953674</ele>
        <time>2015-01-19T09:54:14.000Z</time>
      </trkpt>
      <trkpt lat="46.31798" lon="-0.84921">
        <ele>2.5999999046326</ele>
        <time>2015-01-19T09:54:22.000Z</time>
      </trkpt>
      <trkpt lat="46.31785" lon="-0.84929">
        <ele>2.7999999523163</ele>
        <time>2015-01-19T09:54:29.000Z</time>
      </trkpt>
      <trkpt lat="46.3177" lon="-0.84942">
        <ele>3.2000000476837</ele>
        <time>2015-01-19T09:54:37.000Z</time>
      </trkpt>
      <trkpt lat="46.31769" lon="-0.84943">
        <ele>3.2000000476837</ele>
        <time>2015-01-19T09:54:38.000Z</time>
      </trkpt>
      <trkpt lat="46.31759" lon="-0.84955">
        <ele>3.4000000953674</ele>
        <time>2015-01-19T09:54:44.000Z</time>
      </trkpt>
      <trkpt lat="46.31752" lon="-0.84972">
        <ele>3.7999999523163</ele>
        <time>2015-01-19T09:54:51.000Z</time>
      </trkpt>
      <trkpt lat="46.31747" lon="-0.84997">
        <ele>4</ele>
        <time>2015-01-19T09:55:00.000Z</time>
      </trkpt>
      <trkpt lat="46.31743" lon="-0.85014">
        <ele>4.4000000953674</ele>
        <time>2015-01-19T09:55:08.000Z</time>
      </trkpt>
      <trkpt lat="46.31739" lon="-0.85024">
        <ele>4.5999999046326</ele>
        <time>2015-01-19T09:55:16.000Z</time>
      </trkpt>
      <trkpt lat="46.31736" lon="-0.85028">
        <ele>4.5999999046326</ele>
        <time>2015-01-19T09:55:20.000Z</time>
      </trkpt>
    </trkseg>
  </trk>
</gpx>